BA1414 / G-EUOE 7700 Squawk Report (30th of November, 2019)

Aircraft A319 Reg No. G-EUOE Age 18 years old
Model A319 Jet engines 2 First flight 10-08-01
Registered 05-09-01 Rollout 08-01 Delivered 05-09-01
Construction No. 1574 Line No. N/A Series 131
ADSHEX 40093E Airline name British Airways Owner N/A
Airfield based Heathrow~Gtr London~G First tracked 2017-07-13 08:17:00

Flight history for G-EUOE

Route Flight No Date Playback
Heathrow (LHR) - Geneve Cointrin (GVA) BA924 2020-01-18 18:58:00
Landvetter (GOT) - Heathrow (LHR) BA791 2020-01-18 17:20:00
Heathrow (LHR) - Landvetter (GOT) BA790 2020-01-18 10:37:00
Tegel (TXL) - Heathrow (LHR) BA987 2020-01-17 20:33:00
Heathrow (LHR) - Tegel (TXL) BA986 2020-01-17 19:00:00
Geneve Cointrin (GVA) - Heathrow (LHR) BA741 2020-01-17 16:02:00
Heathrow (LHR) - Geneve Cointrin (GVA) BA740 2020-01-17 12:48:00
Landvetter (GOT) - Heathrow (LHR) BA803 2020-01-17 11:13:00
Heathrow (LHR) - Landvetter (GOT) BA802 2020-01-16 21:17:00
Dyce (ABZ) - Heathrow (LHR) BA1313 2020-01-16 18:46:00
Heathrow (LHR) - Dyce (ABZ) BA1312 2020-01-16 17:07:00
Dusseldorf (DUS) - Heathrow (LHR) BA939 2020-01-16 12:52:00
Heathrow (LHR) - Dusseldorf (DUS) BA938 2020-01-16 10:12:00
Geneve Cointrin (GVA) - Heathrow (LHR) BA723 2020-01-16 08:14:00
Heathrow (LHR) - Geneve Cointrin (GVA) BA738 2020-01-15 21:15:00
Frankfurt Main (FRA) - Heathrow (LHR) BA909 2020-01-15 19:23:00
Heathrow (LHR) - Frankfurt Main (FRA) BA908 2020-01-15 16:56:00
Dusseldorf (DUS) - Heathrow (LHR) BA939 2020-01-15 14:25:00
Heathrow (LHR) - Dusseldorf (DUS) BA938 2020-01-15 11:33:00
Linate (LIN) - Heathrow (LHR) BA561 2020-01-15 08:34:00
Time Lat Lon Altitude Heading Speed Vertical Rate
2019-11-30 07:33:19 GMT 54.618484 -5.871809 0 146 13 0
2019-11-30 07:33:08 GMT 54.618870 -5.871589 0 213 14 0
2019-11-30 07:33:03 GMT 54.619331 -5.871256 0 213 18 0
2019-11-30 07:32:55 GMT 54.619778 -5.870355 0 213 19 0
2019-11-30 07:32:46 GMT 54.620338 -5.869668 0 216 17 0
2019-11-30 07:32:36 GMT 54.620987 -5.869050 0 213 13 0
2019-11-30 07:32:26 GMT 54.621323 -5.868719 0 230 7 0
2019-11-30 07:32:00 GMT 54.621334 -5.868537 0 67 5 0
2019-11-30 07:31:53 GMT 54.621265 -5.868860 0 56 9 0
2019-11-30 07:30:42 GMT 54.595905 -5.898826 225 34 121 -576
2019-11-30 07:30:34 GMT 54.592850 -5.902728 300 35 121 -640
2019-11-30 07:30:29 GMT 54.590599 -5.905235 350 35 119 -640
2019-11-30 07:30:20 GMT 54.586533 -5.910160 450 34 119 -640
2019-11-30 07:30:16 GMT 54.584518 -5.912583 500 34 119 -640
2019-11-30 07:30:12 GMT 54.582592 -5.915056 550 34 117 -640
2019-11-30 07:30:09 GMT 54.581520 -5.916304 575 35 118 -576
2019-11-30 07:29:59 GMT 54.577007 -5.921714 700 35 118 -640
2019-11-30 07:29:53 GMT 54.574539 -5.924461 750 34 119 -704
2019-11-30 07:29:49 GMT 54.572536 -5.926874 800 35 119 -704
2019-11-30 07:29:39 GMT 54.568207 -5.932367 900 35 119 -576
2019-11-30 07:29:29 GMT 54.563461 -5.938030 1,000 34 125 -512
2019-11-30 07:29:19 GMT 54.558243 -5.944007 1,125 34 138 -896
2019-11-30 07:29:09 GMT 54.552704 -5.950678 1,275 34 148 -832
2019-11-30 07:29:03 GMT 54.549259 -5.954756 1,375 34 153 -896
2019-11-30 07:28:58 GMT 54.546570 -5.957902 1,425 34 155 -896
2019-11-30 07:28:55 GMT 54.544418 -5.960487 1,475 34 158 -896
2019-11-30 07:28:49 GMT 54.540928 -5.964827 1,575 34 161 -896
2019-11-30 07:28:44 GMT 54.537918 -5.968161 1,625 34 162 -832
2019-11-30 07:28:38 GMT 54.533707 -5.973008 1,725 34 163 -896
2019-11-30 07:28:33 GMT 54.531292 -5.976146 1,800 34 163 -960
2019-11-30 07:28:30 GMT 54.528870 -5.978810 1,875 34 163 -832
2019-11-30 07:28:27 GMT 54.527103 -5.980890 1,900 34 165 -768
2019-11-30 07:28:23 GMT 54.524734 -5.983914 1,950 34 166 -704
2019-11-30 07:28:18 GMT 54.521702 -5.987632 2,000 34 169 -384
2019-11-30 07:28:13 GMT 54.518280 -5.991346 2,050 33 172 -320
2019-11-30 07:28:07 GMT 54.514393 -5.995705 2,075 33 177 -384
2019-11-30 07:28:03 GMT 54.511181 -5.999118 2,100 31 181 -320
2019-11-30 07:28:00 GMT 54.508526 -6.001781 2,150 27 187 -256
2019-11-30 07:27:57 GMT 54.507225 -6.003196 2,150 27 187 -256
2019-11-30 07:27:53 GMT 54.504044 -6.005644 2,150 22 193 -512
2019-11-30 07:27:50 GMT 54.500793 -6.007421 2,200 13 201 -384
2019-11-30 07:27:47 GMT 54.498657 -6.008273 2,200 13 201 -384
2019-11-30 07:27:44 GMT 54.495167 -6.009438 2,250 8 205 -384
2019-11-30 07:27:40 GMT 54.491592 -6.010006 2,275 5 209 -384
2019-11-30 07:27:37 GMT 54.488697 -6.010354 2,275 5 209 -384
2019-11-30 07:27:33 GMT 54.484737 -6.010687 2,300 358 218 -384
2019-11-30 07:27:30 GMT 54.478642 -6.009521 2,350 354 222 -384
2019-11-30 07:27:27 GMT 54.478642 -6.009521 2,350 352 223 -384
2019-11-30 07:27:23 GMT 54.474747 -6.007744 2,375 334 235 -512
2019-11-30 07:27:20 GMT 54.471176 -6.005159 2,400 331 236 -576
2019-11-30 07:27:17 GMT 54.469025 -6.002817 2,425 326 239 -640
2019-11-30 07:27:10 GMT 54.462814 -5.993042 2,525 310 246 -576
2019-11-30 07:27:06 GMT 54.460785 -5.988518 2,525 308 247 -512
2019-11-30 07:27:02 GMT 54.457973 -5.981889 2,625 306 252 -512
2019-11-30 07:26:59 GMT 54.455505 -5.975897 2,625 306 252 -512
2019-11-30 07:26:56 GMT 54.453876 -5.971985 2,625 306 252 -512
2019-11-30 07:26:53 GMT 54.451263 -5.965819 2,650 306 256 -512
2019-11-30 07:26:49 GMT 54.447777 -5.957586 2,700 307 258 -448
2019-11-30 07:26:46 GMT 54.446548 -5.954751 2,700 307 258 -448
2019-11-30 07:26:43 GMT 54.444145 -5.948930 2,800 306 262 -448
2019-11-30 07:26:39 GMT 54.441696 -5.943200 2,800 307 264 -448
2019-11-30 07:26:36 GMT 54.439682 -5.938433 2,800 307 264 -448
2019-11-30 07:26:32 GMT 54.436462 -5.931202 3,375 265 274 -1408
2019-11-30 07:26:29 GMT 54.434189 -5.925266 2,875 304 273 -384
2019-11-30 07:26:26 GMT 54.432495 -5.920823 2,875 304 273 -384
2019-11-30 07:26:22 GMT 54.429657 -5.912583 2,900 299 276 -768
2019-11-30 07:26:17 GMT 54.426876 -5.902654 3,025 289 278 -1280
2019-11-30 07:26:14 GMT 54.426037 -5.897661 3,025 289 278 -1280
2019-11-30 07:26:10 GMT 54.424782 -5.886341 3,200 276 276 -1728
2019-11-30 07:26:07 GMT 54.424622 -5.880674 3,250 273 275 -1728
2019-11-30 07:26:04 GMT 54.424576 -5.875585 3,325 270 275 -1600
2019-11-30 07:26:01 GMT 54.424732 -5.869113 3,400 265 274 -1344
2019-11-30 07:25:58 GMT 54.425385 -5.860291 3,525 264 274 -1344
2019-11-30 07:25:54 GMT 54.425858 -5.853128 3,575 264 274 -1408
2019-11-30 07:25:50 GMT 54.426315 -5.845130 3,675 264 274 -1920
2019-11-30 07:25:47 GMT 54.426781 -5.837985 3,775 265 273 -1856
2019-11-30 07:25:44 GMT 54.427059 -5.832825 3,825 265 273 -1792
2019-11-30 07:25:40 GMT 54.427643 -5.823804 3,975 264 272 -1728
2019-11-30 07:25:37 GMT 54.427898 -5.816512 4,050 264 272 -1664
2019-11-30 07:25:34 GMT 54.428410 -5.811351 4,125 264 272 -1472
2019-11-30 07:25:30 GMT 54.429016 -5.801697 4,225 264 273 -1152
2019-11-30 07:25:27 GMT 54.429203 -5.795704 4,300 264 274 -1152
2019-11-30 07:25:24 GMT 54.429810 -5.788713 4,375 264 275 -1664
2019-11-30 07:25:20 GMT 54.430412 -5.779724 4,475 264 274 -1984
2019-11-30 07:25:17 GMT 54.430923 -5.772317 4,625 264 273 -1920
2019-11-30 07:25:14 GMT 54.431206 -5.767989 4,675 264 272 -1920
2019-11-30 07:25:10 GMT 54.431717 -5.757835 4,800 264 272 -1792
2019-11-30 07:25:07 GMT 54.432312 -5.751262 4,950 264 271 -1664
2019-11-30 07:25:04 GMT 54.432602 -5.745017 5,000 264 271 -1600
2019-11-30 07:25:00 GMT 54.433182 -5.738418 5,075 264 271 -1664
2019-11-30 07:24:57 GMT 54.433731 -5.730016 5,250 264 269 -2176
2019-11-30 07:24:54 GMT 54.434143 -5.723877 5,300 264 269 -2176
2019-11-30 07:24:49 GMT 54.434830 -5.713860 5,550 264 267 -2240
2019-11-30 07:24:46 GMT 54.435253 -5.707564 5,575 264 266 -1856
2019-11-30 07:24:43 GMT 54.435654 -5.701016 5,675 264 266 -1728
2019-11-30 07:24:40 GMT 54.436047 -5.694747 5,850 264 271 -320
2019-11-30 07:24:37 GMT 54.436523 -5.687525 5,825 264 270 -320
2019-11-30 07:24:34 GMT 54.437721 -5.668196 5,875 264 276 -640
2019-11-30 07:24:28 GMT 54.437721 -5.668196 5,875 264 276 -640
2019-11-30 07:24:24 GMT 54.438263 -5.659009 5,925 264 280 -1088
2019-11-30 07:24:20 GMT 54.438793 -5.651467 6,000 264 282 -1280
2019-11-30 07:24:16 GMT 54.439407 -5.642126 6,100 264 284 -1600
2019-11-30 07:24:13 GMT 54.439861 -5.635404 6,450 263 285 -1856
2019-11-30 07:24:10 GMT 54.440369 -5.628716 6,275 263 286 -2048
2019-11-30 07:24:07 GMT 54.440933 -5.621005 6,375 263 286 -2048
2019-11-30 07:24:04 GMT 54.441444 -5.613847 6,550 263 287 -1920
2019-11-30 07:23:58 GMT 54.442429 -5.600765 6,675 263 288 -1792
2019-11-30 07:23:54 GMT 54.443024 -5.592445 6,750 263 288 -1728
2019-11-30 07:23:51 GMT 54.443680 -5.583968 6,900 263 289 -1792
2019-11-30 07:23:48 GMT 54.444008 -5.579390 7,000 263 291 -1856
2019-11-30 07:23:45 GMT 54.444469 -5.572981 7,050 263 292 -1856
2019-11-30 07:23:42 GMT 54.445683 -5.557334 7,225 263 293 -1792
2019-11-30 07:23:36 GMT 54.446983 -5.543435 7,400 262 295 -2048
2019-11-30 07:23:32 GMT 54.446983 -5.543435 7,475 262 295 -2048
2019-11-30 07:23:29 GMT 54.447453 -5.535778 7,600 262 295 -1920
2019-11-30 07:23:26 GMT 54.448288 -5.527900 7,675 262 297 -1728
2019-11-30 07:23:22 GMT 54.448792 -5.519499 7,775 262 298 -1536
2019-11-30 07:23:19 GMT 54.449734 -5.510559 7,825 262 299 -1344
2019-11-30 07:23:15 GMT 54.450211 -5.502535 7,925 263 304 -1088
2019-11-30 07:23:11 GMT 54.451126 -5.491064 8,025 263 308 -768
2019-11-30 07:23:08 GMT 54.452011 -5.478682 8,075 264 312 -896
2019-11-30 07:23:02 GMT 54.452591 -5.470222 8,125 265 317 -1088
2019-11-30 07:22:59 GMT 54.453037 -5.461620 8,225 267 324 -1408
2019-11-30 07:22:56 GMT 54.453094 -5.453743 8,275 269 327 -1600
2019-11-30 07:22:51 GMT 54.453083 -5.439814 8,350 272 332 -1984
2019-11-30 07:22:48 GMT 54.452709 -5.434487 8,500 275 336 -2368
2019-11-30 07:22:45 GMT 54.452293 -5.427080 8,575 276 337 -2496
2019-11-30 07:22:42 GMT 54.451675 -5.417795 9,525 278 340 -2944
2019-11-30 07:22:39 GMT 54.451080 -5.411932 8,900 278 341 -3136
2019-11-30 07:22:35 GMT 54.450256 -5.398649 9,075 278 342 -3520
2019-11-30 07:22:30 GMT 54.449265 -5.383883 9,525 277 343 -3968
2019-11-30 07:22:27 GMT 54.448471 -5.372557 9,725 277 343 -3776
2019-11-30 07:22:24 GMT 54.448471 -5.372557 9,800 277 344 -3776
2019-11-30 07:22:20 GMT 54.446892 -5.350259 10,175 277 346 -3520
2019-11-30 07:22:17 GMT 54.446892 -5.350259 10,325 277 347 -3456
2019-11-30 07:22:14 GMT 54.446239 -5.340437 11,175 277 351 -3456
2019-11-30 07:22:11 GMT 54.445816 -5.334347 10,625 277 348 -3904
2019-11-30 07:22:08 GMT 54.445221 -5.325623 10,925 277 349 -3904
2019-11-30 07:22:05 GMT 54.444626 -5.316817 11,050 277 349 -3776
2019-11-30 07:22:02 GMT 54.444122 -5.309062 11,450 277 351 -3456
2019-11-30 07:21:59 GMT 54.443588 -5.300820 11,450 277 351 -3456
2019-11-30 07:21:56 GMT 54.442841 -5.291748 11,725 277 356 -2304
2019-11-30 07:21:50 GMT 54.442017 -5.276588 11,800 277 361 -1472
2019-11-30 07:21:47 GMT 54.441307 -5.265947 11,875 277 364 -1344
2019-11-30 07:21:43 GMT 54.440643 -5.255908 11,975 277 381 -3712
2019-11-30 07:21:39 GMT 54.439770 -5.242226 12,100 277 378 -2176
2019-11-30 07:21:36 GMT 54.439087 -5.232239 12,200 277 380 -2816
2019-11-30 07:21:30 GMT 54.437908 -5.217008 12,575 277 381 -3968
2019-11-30 07:21:27 GMT 54.437485 -5.208247 12,725 277 381 -3968
2019-11-30 07:21:24 GMT 54.436890 -5.199764 12,925 277 381 -4032
2019-11-30 07:21:21 GMT 54.436066 -5.190232 13,050 277 381 -4032
2019-11-30 07:21:18 GMT 54.435562 -5.180458 13,200 277 381 -4096
2019-11-30 07:21:15 GMT 54.434788 -5.169816 13,600 277 381 -3968
2019-11-30 07:21:11 GMT 54.434090 -5.159579 13,925 277 382 -3584
2019-11-30 07:21:08 GMT 54.433250 -5.149758 14,025 277 383 -3392
2019-11-30 07:21:05 GMT 54.432461 -5.139021 14,225 277 384 -3392
2019-11-30 07:21:02 GMT 54.431259 -5.119467 14,425 277 386 -3712
2019-11-30 07:20:58 GMT 54.430599 -5.109725 14,675 277 386 -4096
2019-11-30 07:20:55 GMT 54.430599 -5.109725 14,825 277 386 -4096
2019-11-30 07:20:52 GMT 54.430088 -5.102400 15,000 277 386 -4032
2019-11-30 07:20:49 GMT 54.429291 -5.090871 15,250 277 387 -3968
2019-11-30 07:20:44 GMT 54.428421 -5.078673 15,675 277 387 -3968
2019-11-30 07:20:41 GMT 54.427551 -5.066636 15,900 278 388 -3968
2019-11-30 07:20:38 GMT 54.427094 -5.060335 15,925 278 388 -3968
2019-11-30 07:20:34 GMT 54.426041 -5.045633 16,125 278 390 -4096
2019-11-30 07:20:31 GMT 54.424782 -5.030323 16,575 278 389 -3776
2019-11-30 07:20:25 GMT 54.424164 -5.019944 16,800 278 390 -3840
2019-11-30 07:20:22 GMT 54.423477 -5.010764 17,025 280 389 -4288
2019-11-30 07:20:19 GMT 54.422451 -4.999695 17,250 279 390 -4160
2019-11-30 07:20:16 GMT 54.421894 -4.991122 17,425 280 389 -4416
2019-11-30 07:20:13 GMT 54.420181 -4.978503 17,750 284 386 -4672
2019-11-30 07:20:10 GMT 54.419472 -4.973145 18,025 285 386 -4672
2019-11-30 07:20:07 GMT 54.417389 -4.962185 18,250 290 383 -4672
2019-11-30 07:20:03 GMT 54.414825 -4.950956 18,850 298 377 -4480
2019-11-30 07:19:59 GMT 54.412395 -4.943015 18,850 299 377 -4416
2019-11-30 07:19:56 GMT 54.406219 -4.926480 19,150 306 372 -4224
2019-11-30 07:19:53 GMT 54.406219 -4.926480 19,300 307 372 -4160
2019-11-30 07:19:50 GMT 54.403553 -4.920543 19,450 309 370 -4032
2019-11-30 07:19:47 GMT 54.401230 -4.915332 19,525 309 369 -3968
2019-11-30 07:19:44 GMT 54.396927 -4.906526 19,700 310 367 -3840
2019-11-30 07:19:41 GMT 54.394775 -4.902003 20,075 310 363 -3520
2019-11-30 07:19:38 GMT 54.390705 -4.893577 20,450 310 363 -3328
2019-11-30 07:19:35 GMT 54.386467 -4.884671 20,400 310 361 -2816
2019-11-30 07:19:32 GMT 54.384373 -4.880260 20,450 310 361 -2368
2019-11-30 07:19:28 GMT 54.379944 -4.870982 20,675 310 362 -1984
2019-11-30 07:19:25 GMT 54.375900 -4.862532 20,800 310 362 -1984
2019-11-30 07:19:22 GMT 54.373806 -4.858121 20,825 310 362 -2048
2019-11-30 07:19:18 GMT 54.369801 -4.850131 21,850 310 364 -2048
2019-11-30 07:19:15 GMT 54.366348 -4.842628 21,075 310 363 -2048
2019-11-30 07:19:12 GMT 54.363144 -4.835899 21,200 310 364 -2048
2019-11-30 07:19:09 GMT 54.359894 -4.829299 21,275 310 364 -2048
2019-11-30 07:19:06 GMT 54.356720 -4.822582 21,425 310 364 -2048
2019-11-30 07:19:03 GMT 54.352249 -4.813760 21,525 310 365 -1984
2019-11-30 07:18:59 GMT 54.349594 -4.807973 21,575 310 365 -1984
2019-11-30 07:18:56 GMT 54.342941 -4.794201 21,750 310 365 -2112
2019-11-30 07:18:53 GMT 54.342941 -4.794201 22,125 310 366 -2112
2019-11-30 07:18:50 GMT 54.338791 -4.785758 21,900 310 366 -2112
2019-11-30 07:18:47 GMT 54.336182 -4.780426 22,000 310 366 -2048
2019-11-30 07:18:44 GMT 54.332512 -4.772894 22,200 310 370 -2048
2019-11-30 07:18:41 GMT 54.329681 -4.767097 22,225 310 367 -1856
2019-11-30 07:18:38 GMT 54.326416 -4.760576 22,325 310 367 -1920
2019-11-30 07:18:35 GMT 54.322926 -4.753252 22,450 310 369 -1984
2019-11-30 07:18:31 GMT 54.319431 -4.746094 22,550 310 369 -2048
2019-11-30 07:18:28 GMT 54.315079 -4.737612 22,700 310 370 -2048
2019-11-30 07:18:25 GMT 54.312263 -4.731778 22,775 310 370 -2048
2019-11-30 07:18:22 GMT 54.307934 -4.722540 22,875 309 371 -2048
2019-11-30 07:18:19 GMT 54.305786 -4.717659 22,925 309 370 -2048
2019-11-30 07:18:16 GMT 54.299515 -4.703522 23,150 307 371 -2112
2019-11-30 07:18:13 GMT 54.299515 -4.703522 23,250 307 372 -2112
2019-11-30 07:18:10 GMT 54.297089 -4.697786 23,275 306 371 -2048
2019-11-30 07:18:06 GMT 54.292896 -4.687750 23,500 305 372 -2112
2019-11-30 07:18:03 GMT 54.289406 -4.679011 23,750 305 373 -2176
2019-11-30 07:18:00 GMT 54.286659 -4.672186 23,850 305 373 -2176
2019-11-30 07:17:57 GMT 54.283722 -4.664989 23,725 305 373 -2176
2019-11-30 07:17:54 GMT 54.280563 -4.657234 23,975 305 374 -2176
2019-11-30 07:17:51 GMT 54.278187 -4.650879 24,075 305 375 -2176
2019-11-30 07:17:48 GMT 54.275024 -4.643607 24,075 305 375 -2176
2019-11-30 07:17:45 GMT 54.272278 -4.636858 24,125 305 375 -2176
2019-11-30 07:17:42 GMT 54.268925 -4.628556 24,350 305 375 -2112
2019-11-30 07:17:39 GMT 54.265526 -4.619832 24,450 305 376 -2112
2019-11-30 07:17:36 GMT 54.262756 -4.613473 24,525 305 376 -2048
2019-11-30 07:17:33 GMT 54.259800 -4.606180 24,725 305 376 -2048
2019-11-30 07:17:30 GMT 54.256577 -4.597700 24,725 305 377 -1984
2019-11-30 07:17:27 GMT 54.253235 -4.590088 24,850 306 377 -2048
2019-11-30 07:17:24 GMT 54.251221 -4.585066 25,050 305 378 -2048
2019-11-30 07:17:21 GMT 54.248016 -4.577375 25,050 305 378 -2048
2019-11-30 07:17:18 GMT 54.245178 -4.570548 25,100 306 378 -2112
2019-11-30 07:17:15 GMT 54.239361 -4.556176 25,350 306 379 -2048
2019-11-30 07:17:09 GMT 54.236149 -4.548501 25,500 305 380 -1984
2019-11-30 07:17:06 GMT 54.233356 -4.541635 25,575 305 380 -1984
2019-11-30 07:17:03 GMT 54.230518 -4.534768 25,625 305 380 -1920
2019-11-30 07:17:00 GMT 54.226887 -4.525882 26,275 305 382 -1984
2019-11-30 07:16:57 GMT 54.223846 -4.518363 25,825 305 382 -1984
2019-11-30 07:16:54 GMT 54.220417 -4.509888 26,025 306 383 -1984
2019-11-30 07:16:51 GMT 54.216785 -4.501002 26,100 305 384 -1984
2019-11-30 07:16:48 GMT 54.211304 -4.487601 26,250 305 384 -1984
2019-11-30 07:16:45 GMT 54.208832 -4.481873 26,350 305 385 -1984
2019-11-30 07:16:39 GMT 54.205799 -4.474182 26,600 305 386 -2048
2019-11-30 07:16:36 GMT 54.201920 -4.464765 26,600 305 386 -2112
2019-11-30 07:16:33 GMT 54.199860 -4.459743 26,975 306 387 -2176
2019-11-30 07:16:30 GMT 54.192669 -4.442273 26,850 305 387 -2112
2019-11-30 07:16:26 GMT 54.192669 -4.442273 27,000 305 387 -2112
2019-11-30 07:16:23 GMT 54.189194 -4.433768 27,375 306 388 -2112
2019-11-30 07:16:20 GMT 54.186108 -4.426198 27,125 305 389 -2112
2019-11-30 07:16:16 GMT 54.182011 -4.416181 27,275 305 389 -2112
2019-11-30 07:16:13 GMT 54.179123 -4.409153 27,425 306 389 -2112
2019-11-30 07:16:10 GMT 54.172886 -4.394127 27,575 306 390 -2112
2019-11-30 07:16:04 GMT 54.169373 -4.385507 27,775 306 391 -2176
2019-11-30 07:16:01 GMT 54.165848 -4.377502 27,850 305 391 -2240
2019-11-30 07:15:58 GMT 54.163696 -4.371460 28,075 305 391 -2240
2019-11-30 07:15:55 GMT 54.159485 -4.361258 28,100 304 391 -2304
2019-11-30 07:15:52 GMT 54.157242 -4.355059 28,250 303 391 -2240
2019-11-30 07:15:49 GMT 54.153893 -4.346305 28,350 303 392 -2176
2019-11-30 07:15:46 GMT 54.151611 -4.339842 28,375 303 393 -2048
2019-11-30 07:15:43 GMT 54.148773 -4.332491 28,550 301 394 -1728
2019-11-30 07:15:40 GMT 54.145187 -4.321828 28,700 301 394 -1728
2019-11-30 07:15:37 GMT 54.142273 -4.313860 28,725 301 395 -1792
2019-11-30 07:15:31 GMT 54.137054 -4.298793 28,900 301 397 -1792
2019-11-30 07:15:28 GMT 54.134808 -4.291777 29,000 301 398 -1920
2019-11-30 07:15:25 GMT 54.132198 -4.284426 29,100 301 398 -1920
2019-11-30 07:15:22 GMT 54.128662 -4.274732 29,150 301 399 -1920
2019-11-30 07:15:19 GMT 54.126755 -4.268581 29,200 301 399 -1920
2019-11-30 07:15:16 GMT 54.119583 -4.248720 29,400 301 401 -1856
2019-11-30 07:15:13 GMT 54.119583 -4.248720 29,500 301 402 -1920
2019-11-30 07:15:10 GMT 54.117874 -4.243626 29,550 301 403 -2048
2019-11-30 07:15:07 GMT 54.112198 -4.227225 29,750 301 404 -2176
2019-11-30 07:15:04 GMT 54.108398 -4.216317 29,850 301 404 -2112
2019-11-30 07:15:01 GMT 54.108398 -4.216317 29,900 301 405 -2112
2019-11-30 07:14:58 GMT 54.105572 -4.208087 30,075 301 405 -2176
2019-11-30 07:14:55 GMT 54.103821 -4.203212 30,100 301 405 -2176
2019-11-30 07:14:52 GMT 54.101151 -4.195000 30,175 301 406 -2176
2019-11-30 07:14:49 GMT 54.097916 -4.185634 30,425 301 406 -2176
2019-11-30 07:14:46 GMT 54.094864 -4.177390 30,475 301 407 -2048
2019-11-30 07:14:43 GMT 54.092163 -4.169715 30,575 301 408 -1984
2019-11-30 07:14:40 GMT 54.088669 -4.159267 30,625 301 408 -1920
2019-11-30 07:14:37 GMT 54.085972 -4.151863 30,750 301 410 -1984
2019-11-30 07:14:34 GMT 54.083458 -4.144269 30,925 301 411 -2112
2019-11-30 07:14:31 GMT 54.080566 -4.135803 30,950 301 411 -2048
2019-11-30 07:14:27 GMT 54.077267 -4.126497 31,050 301 411 -2048
2019-11-30 07:14:24 GMT 54.073425 -4.115949 31,275 301 412 -2368
2019-11-30 07:14:21 GMT 54.071091 -4.109279 31,325 301 412 -2432
2019-11-30 07:14:18 GMT 54.068390 -4.101432 31,550 301 413 -2560
2019-11-30 07:14:15 GMT 54.065071 -4.092003 31,675 301 412 -2496
2019-11-30 07:14:12 GMT 54.061207 -4.080775 31,775 301 413 -2560
2019-11-30 07:14:09 GMT 54.058506 -4.073020 31,875 301 413 -2560
2019-11-30 07:14:06 GMT 54.055946 -4.065022 32,100 301 412 -2496
2019-11-30 07:14:03 GMT 54.053421 -4.057957 32,100 301 412 -2496
2019-11-30 07:14:00 GMT 54.050949 -4.051052 32,375 301 412 -2496
2019-11-30 07:13:57 GMT 54.046867 -4.039576 32,375 301 412 -2432
2019-11-30 07:13:54 GMT 54.045101 -4.034002 32,550 301 413 -2432
2019-11-30 07:13:51 GMT 54.041382 -4.023350 32,625 301 413 -2304
2019-11-30 07:13:48 GMT 54.038815 -4.016149 32,750 301 414 -2176
2019-11-30 07:13:45 GMT 54.032181 -3.997532 32,925 301 415 -1920
2019-11-30 07:13:42 GMT 54.032181 -3.997532 33,025 301 416 -1920
2019-11-30 07:13:39 GMT 54.029434 -3.989842 33,050 301 417 -1920
2019-11-30 07:13:36 GMT 54.026825 -3.981995 33,125 301 417 -1856
2019-11-30 07:13:33 GMT 54.024105 -3.974708 33,250 301 419 -1792
2019-11-30 07:13:30 GMT 54.017357 -3.955401 33,600 301 420 -2752
2019-11-30 07:13:27 GMT 54.017357 -3.955401 33,450 301 420 -2112
2019-11-30 07:13:24 GMT 54.015724 -3.951039 33,625 301 420 -2752
2019-11-30 07:13:21 GMT 54.011349 -3.938599 33,700 301 420 -2880
2019-11-30 07:13:18 GMT 54.006775 -3.925572 33,925 301 420 -2880
2019-11-30 07:13:12 GMT 54.003017 -3.914849 34,150 301 419 -2624
2019-11-30 07:13:09 GMT 53.999851 -3.905801 34,250 301 419 -2496
2019-11-30 07:13:06 GMT 53.995243 -3.892311 34,400 301 419 -2368
2019-11-30 07:13:03 GMT 53.993317 -3.887198 35,975 302 426 -64
2019-11-30 07:13:00 GMT 53.991703 -3.882132 34,600 301 420 -2560
2019-11-30 07:12:57 GMT 53.988354 -3.873085 34,725 301 420 -2560
2019-11-30 07:12:54 GMT 53.985188 -3.863875 34,875 301 419 -2304
2019-11-30 07:12:51 GMT 53.981743 -3.853778 35,025 302 420 -1920
2019-11-30 07:12:48 GMT 53.978764 -3.846023 35,075 302 421 -1728
2019-11-30 07:12:45 GMT 53.975178 -3.835844 35,175 302 421 -1728
2019-11-30 07:12:42 GMT 53.973129 -3.830189 35,250 302 423 -1664
2019-11-30 07:12:39 GMT 53.969128 -3.818880 35,400 302 423 -1728
2019-11-30 07:12:36 GMT 53.966473 -3.810883 35,500 302 423 -1792
2019-11-30 07:12:33 GMT 53.964066 -3.804644 35,600 301 424 -1792
2019-11-30 07:12:30 GMT 53.960655 -3.794807 35,675 301 424 -1728
2019-11-30 07:12:27 GMT 53.957443 -3.785679 35,800 302 424 -1216
2019-11-30 07:12:24 GMT 53.951530 -3.768714 35,875 302 424 -1088
2019-11-30 07:12:21 GMT 53.951530 -3.768714 35,975 302 426 -192
2019-11-30 07:12:18 GMT 53.949760 -3.764029 35,975 301 425 -384
2019-11-30 07:12:15 GMT 53.944920 -3.750296 35,975 302 426 -64
2019-11-30 07:12:12 GMT 53.942688 -3.744141 35,975 302 426 -64
2019-11-30 07:12:09 GMT 53.939621 -3.735038 36,000 302 426 0
2019-11-30 07:12:06 GMT 53.936771 -3.727435 36,000 302 426 0
2019-11-30 07:12:03 GMT 53.934174 -3.719971 36,000 302 426 -64
2019-11-30 07:12:00 GMT 53.930721 -3.710309 36,000 302 426 -64
2019-11-30 07:11:57 GMT 53.927261 -3.700588 36,000 302 426 0
2019-11-30 07:11:54 GMT 53.923832 -3.691083 36,000 302 426 64
2019-11-30 07:11:51 GMT 53.921364 -3.684055 36,000 302 426 64
2019-11-30 07:11:48 GMT 53.917923 -3.674377 36,000 302 426 64
2019-11-30 07:11:45 GMT 53.915314 -3.667091 36,000 302 426 64
2019-11-30 07:11:42 GMT 53.912247 -3.658369 35,975 302 425 0
2019-11-30 07:11:39 GMT 53.908981 -3.648915 35,975 302 425 0
2019-11-30 07:11:36 GMT 53.905792 -3.640163 35,975 302 425 0
2019-11-30 07:11:33 GMT 53.903320 -3.633493 35,975 302 425 0
2019-11-30 07:11:30 GMT 53.899658 -3.623291 35,975 302 425 0
2019-11-30 07:11:27 GMT 53.894989 -3.609480 35,975 302 425 0
2019-11-30 07:11:21 GMT 53.890732 -3.598101 35,975 302 425 0
2019-11-30 07:11:17 GMT 53.886292 -3.585624 35,975 302 425 0
2019-11-30 07:11:14 GMT 53.884644 -3.581229 35,975 302 424 0
2019-11-30 07:11:11 GMT 53.880817 -3.570395 35,975 302 424 0
2019-11-30 07:11:08 GMT 53.878769 -3.564740 35,975 302 424 0
2019-11-30 07:11:05 GMT 53.873928 -3.551088 35,975 302 424 64
2019-11-30 07:11:02 GMT 53.871086 -3.543010 35,975 302 423 64
2019-11-30 07:10:59 GMT 53.867874 -3.534124 35,975 302 423 0
2019-11-30 07:10:56 GMT 53.865829 -3.527867 35,975 302 423 0
2019-11-30 07:10:53 GMT 53.859192 -3.509504 35,975 302 424 0
2019-11-30 07:10:50 GMT 53.859192 -3.509504 35,975 302 424 -64
2019-11-30 07:10:47 GMT 53.856766 -3.502755 35,975 302 423 -64
2019-11-30 07:10:44 GMT 53.853725 -3.494218 35,975 302 423 -64
2019-11-30 07:10:41 GMT 53.850883 -3.486463 35,975 302 423 0
2019-11-30 07:10:38 GMT 53.848022 -3.477801 35,975 302 424 -64
2019-11-30 07:10:35 GMT 53.844414 -3.468125 36,000 302 424 0
2019-11-30 07:10:32 GMT 53.838089 -3.450649 36,000 302 424 0
2019-11-30 07:10:29 GMT 53.835251 -3.442880 36,000 302 424 0
2019-11-30 07:10:26 GMT 53.835251 -3.442880 36,000 302 424 0
2019-11-30 07:10:23 GMT 53.832413 -3.435032 36,000 302 423 0
2019-11-30 07:10:20 GMT 53.829330 -3.426361 36,000 302 423 0
2019-11-30 07:10:17 GMT 53.825455 -3.415806 35,975 302 424 0
2019-11-30 07:10:13 GMT 53.821182 -3.403985 36,000 302 424 64
2019-11-30 07:10:10 GMT 53.819508 -3.399299 35,975 302 424 64
2019-11-30 07:10:07 GMT 53.816071 -3.389910 35,975 302 424 0
2019-11-30 07:10:04 GMT 53.812775 -3.380886 35,975 302 424 0
2019-11-30 07:10:01 GMT 53.809937 -3.372803 35,975 302 424 0
2019-11-30 07:09:58 GMT 53.807098 -3.365034 35,975 302 424 0
2019-11-30 07:09:55 GMT 53.802979 -3.353577 36,000 302 424 0
2019-11-30 07:09:52 GMT 53.800964 -3.347927 36,000 302 424 -64
2019-11-30 07:09:49 GMT 53.795242 -3.332310 36,000 302 424 0
2019-11-30 07:09:46 GMT 53.791992 -3.323129 36,000 302 424 0
2019-11-30 07:09:43 GMT 53.791992 -3.323129 36,000 302 424 0
2019-11-30 07:09:40 GMT 53.788086 -3.312539 36,000 302 424 0
2019-11-30 07:09:37 GMT 53.785618 -3.305754 36,000 302 424 0
2019-11-30 07:09:34 GMT 53.778683 -3.286609 36,000 302 424 -64
2019-11-30 07:09:31 GMT 53.778683 -3.286609 36,000 302 424 0
2019-11-30 07:09:28 GMT 53.776588 -3.281035 36,000 302 424 0
2019-11-30 07:09:25 GMT 53.773087 -3.271415 36,000 302 424 0
2019-11-30 07:09:22 GMT 53.770203 -3.263567 35,975 302 424 64
2019-11-30 07:09:19 GMT 53.763153 -3.244341 35,975 302 424 0
2019-11-30 07:09:16 GMT 53.763153 -3.244341 35,975 302 424 0
2019-11-30 07:09:13 GMT 53.760681 -3.237749 35,975 302 424 -64
2019-11-30 07:09:10 GMT 53.757175 -3.228042 35,975 302 424 -64
2019-11-30 07:09:07 GMT 53.754707 -3.221256 35,975 302 424 -64
2019-11-30 07:09:04 GMT 53.750984 -3.211320 36,000 302 424 -64
2019-11-30 07:09:01 GMT 53.748516 -3.204373 36,000 302 424 -64
2019-11-30 07:08:58 GMT 53.744888 -3.193569 36,000 301 424 -64
2019-11-30 07:08:55 GMT 53.741299 -3.183854 36,000 301 425 -64
2019-11-30 07:08:52 GMT 53.736179 -3.168990 36,000 301 424 -64
2019-11-30 07:08:49 GMT 53.736179 -3.168990 36,000 301 424 -64
2019-11-30 07:08:45 GMT 53.732391 -3.158334 36,000 301 425 -64
2019-11-30 07:08:42 GMT 53.729233 -3.149231 36,025 301 424 0
2019-11-30 07:08:39 GMT 53.726822 -3.141605 36,000 301 424 0
2019-11-30 07:08:36 GMT 53.722679 -3.130376 36,000 301 424 64
2019-11-30 07:08:33 GMT 53.720856 -3.125061 36,000 301 426 -64
2019-11-30 07:08:30 GMT 53.717094 -3.114382 36,000 301 426 -64
2019-11-30 07:08:27 GMT 53.713928 -3.105092 36,000 301 425 0
2019-11-30 07:08:24 GMT 53.708714 -3.090470 36,000 301 426 -64
2019-11-30 07:08:21 GMT 53.708714 -3.090470 36,000 301 426 -128
2019-11-30 07:08:18 GMT 53.704971 -3.079389 36,025 301 425 64
2019-11-30 07:08:15 GMT 53.702522 -3.072133 36,025 301 426 -128
2019-11-30 07:08:12 GMT 53.698792 -3.061105 36,025 301 426 -64
2019-11-30 07:08:09 GMT 53.696640 -3.055533 36,025 301 426 0
2019-11-30 07:08:06 GMT 53.692703 -3.044076 36,025 301 428 -64
2019-11-30 07:08:03 GMT 53.689957 -3.035993 36,025 301 425 64
2019-11-30 07:08:00 GMT 53.687763 -3.029561 36,025 301 425 64
2019-11-30 07:07:57 GMT 53.684181 -3.019382 36,025 301 426 64
2019-11-30 07:07:54 GMT 53.681015 -3.010254 36,025 301 427 -64
2019-11-30 07:07:51 GMT 53.678421 -3.002642 36,025 301 427 -128
2019-11-30 07:07:48 GMT 53.675987 -2.995228 36,025 301 427 -64
2019-11-30 07:07:45 GMT 53.671799 -2.984000 36,025 301 427 -64
2019-11-30 07:07:42 GMT 53.669003 -2.975922 36,025 301 427 -64
2019-11-30 07:07:39 GMT 53.666794 -2.969448 36,025 301 428 -64
2019-11-30 07:07:36 GMT 53.663418 -2.959765 36,025 301 427 0
2019-11-30 07:07:33 GMT 53.660393 -2.950798 36,050 301 427 0
2019-11-30 07:07:30 GMT 53.657833 -2.943690 36,025 301 427 0
2019-11-30 07:07:27 GMT 53.654205 -2.933036 36,025 301 428 64
2019-11-30 07:07:24 GMT 53.651230 -2.924953 36,025 301 428 64
2019-11-30 07:07:21 GMT 53.648380 -2.916385 36,025 301 428 0
2019-11-30 07:07:18 GMT 53.646011 -2.909964 36,025 301 428 0
2019-11-30 07:07:15 GMT 53.642807 -2.900783 36,025 301 428 0
2019-11-30 07:07:12 GMT 53.639771 -2.892151 36,025 301 428 0
2019-11-30 07:07:09 GMT 53.637348 -2.885446 36,025 301 428 0
2019-11-30 07:07:06 GMT 53.632927 -2.872682 36,025 301 428 64
2019-11-30 07:07:03 GMT 53.631134 -2.867589 36,025 301 428 64
2019-11-30 07:07:00 GMT 53.626877 -2.854954 36,025 301 428 64
2019-11-30 07:06:57 GMT 53.621288 -2.839481 36,025 301 428 64
2019-11-30 07:06:54 GMT 53.618870 -2.832615 36,025 301 428 64
2019-11-30 07:06:51 GMT 53.615845 -2.824036 36,025 301 428 64
2019-11-30 07:06:48 GMT 53.615845 -2.824036 36,000 301 428 64
2019-11-30 07:06:45 GMT 53.613007 -2.816031 36,000 301 428 64
2019-11-30 07:06:42 GMT 53.608978 -2.804574 36,000 301 429 0
2019-11-30 07:06:39 GMT 53.606552 -2.797747 36,000 301 429 0
2019-11-30 07:06:36 GMT 53.604111 -2.790285 36,025 301 429 0
2019-11-30 07:06:33 GMT 53.600098 -2.779384 36,000 301 429 -64
2019-11-30 07:06:30 GMT 53.598083 -2.773655 36,025 301 428 0
2019-11-30 07:06:27 GMT 53.594055 -2.762434 36,000 301 429 -64
2019-11-30 07:06:24 GMT 53.591450 -2.754983 36,000 301 429 0
2019-11-30 07:06:21 GMT 53.587784 -2.743914 36,025 301 428 0
2019-11-30 07:06:18 GMT 53.584976 -2.736646 36,000 301 429 64
2019-11-30 07:06:15 GMT 53.581558 -2.726728 36,025 301 428 64
2019-11-30 07:06:12 GMT 53.579533 -2.720651 36,000 301 428 64
2019-11-30 07:06:09 GMT 53.576340 -2.711897 36,000 301 429 64
2019-11-30 07:06:06 GMT 53.574085 -2.705787 36,000 301 429 64
2019-11-30 07:06:03 GMT 53.569660 -2.693024 36,000 301 429 64
2019-11-30 07:06:00 GMT 53.567242 -2.686157 36,000 301 429 64
2019-11-30 07:05:57 GMT 53.563797 -2.676426 36,000 301 428 64
2019-11-30 07:05:54 GMT 53.560547 -2.667480 35,975 301 428 0
2019-11-30 07:05:51 GMT 53.557930 -2.659903 36,000 301 428 0
2019-11-30 07:05:48 GMT 53.555283 -2.652492 35,975 301 429 -64
2019-11-30 07:05:45 GMT 53.552437 -2.644070 35,975 301 428 0
2019-11-30 07:05:42 GMT 53.545990 -2.626360 36,000 301 428 0
2019-11-30 07:05:39 GMT 53.545990 -2.626360 36,000 301 428 0
2019-11-30 07:05:36 GMT 53.543335 -2.618199 36,000 301 428 0
2019-11-30 07:05:33 GMT 53.539902 -2.609096 35,975 301 428 0
2019-11-30 07:05:30 GMT 53.536285 -2.598973 35,975 301 428 0
2019-11-30 07:05:27 GMT 53.533997 -2.591989 36,000 301 428 0
2019-11-30 07:05:24 GMT 53.529999 -2.581141 36,000 301 428 0
2019-11-30 07:05:21 GMT 53.526947 -2.572606 35,975 301 428 0
2019-11-30 07:05:18 GMT 53.522507 -2.560207 36,000 301 428 64
2019-11-30 07:05:15 GMT 53.521481 -2.557229 35,975 301 428 0
2019-11-30 07:05:12 GMT 53.518223 -2.548263 35,975 301 427 64
2019-11-30 07:05:09 GMT 53.511932 -2.530622 35,975 301 428 64
2019-11-30 07:05:06 GMT 53.511932 -2.530622 35,975 301 428 64
2019-11-30 07:05:03 GMT 53.508911 -2.522089 35,975 301 428 0
2019-11-30 07:05:00 GMT 53.506668 -2.515869 35,975 301 428 0
2019-11-30 07:04:57 GMT 53.503830 -2.507708 35,975 301 428 -64
2019-11-30 07:04:54 GMT 53.499599 -2.495916 35,975 301 427 -64
2019-11-30 07:04:51 GMT 53.496552 -2.487383 35,975 301 428 -64
2019-11-30 07:04:48 GMT 53.493919 -2.480002 35,975 301 428 -64
2019-11-30 07:04:45 GMT 53.491470 -2.472395 35,975 301 428 0
2019-11-30 07:04:42 GMT 53.487625 -2.462350 35,975 301 427 64
2019-11-30 07:04:39 GMT 53.484192 -2.452536 35,975 301 427 64
2019-11-30 07:04:36 GMT 53.482189 -2.446881 35,975 301 427 64
2019-11-30 07:04:33 GMT 53.479156 -2.438337 35,975 301 427 64
2019-11-30 07:04:30 GMT 53.475128 -2.426958 35,975 301 427 64
2019-11-30 07:04:27 GMT 53.470230 -2.413539 35,975 301 427 0
2019-11-30 07:04:24 GMT 53.466614 -2.403102 35,975 301 427 -64
2019-11-30 07:04:21 GMT 53.466614 -2.403102 35,975 301 427 -128
2019-11-30 07:04:18 GMT 53.464188 -2.396354 35,975 301 427 -128
2019-11-30 07:04:15 GMT 53.460938 -2.387408 35,975 301 427 -128
2019-11-30 07:04:12 GMT 53.457275 -2.377206 36,000 301 427 -64
2019-11-30 07:04:09 GMT 53.453838 -2.367392 36,000 302 427 64
2019-11-30 07:04:06 GMT 53.451782 -2.361119 36,000 301 427 -64
2019-11-30 07:04:03 GMT 53.447742 -2.350347 36,000 301 427 -64
2019-11-30 07:04:00 GMT 53.445320 -2.343562 36,000 301 427 -64
2019-11-30 07:03:57 GMT 53.442261 -2.335223 36,000 302 427 -64
2019-11-30 07:03:54 GMT 53.439560 -2.327140 36,000 302 427 0
2019-11-30 07:03:51 GMT 53.436127 -2.318272 36,000 302 427 0
2019-11-30 07:03:48 GMT 53.433079 -2.309633 36,000 302 427 0
2019-11-30 07:03:45 GMT 53.430450 -2.302420 36,000 302 427 64
2019-11-30 07:03:42 GMT 53.427567 -2.294338 36,000 302 427 64
2019-11-30 07:03:39 GMT 53.424316 -2.285313 36,000 302 428 64
2019-11-30 07:03:36 GMT 53.420654 -2.275112 36,000 302 428 -64
2019-11-30 07:03:33 GMT 53.417156 -2.265607 36,000 302 428 -64
2019-11-30 07:03:30 GMT 53.412270 -2.252036 36,000 302 428 -64
2019-11-30 07:03:27 GMT 53.412270 -2.252036 36,000 302 428 -64
2019-11-30 07:03:24 GMT 53.409164 -2.243408 36,000 302 428 -64
2019-11-30 07:03:21 GMT 53.405502 -2.233364 36,025 302 428 -64
2019-11-30 07:03:18 GMT 53.402027 -2.223681 36,000 302 428 0
2019-11-30 07:03:15 GMT 53.399979 -2.218027 36,025 302 428 0
2019-11-30 07:03:12 GMT 53.395660 -2.206133 36,025 302 428 64
2019-11-30 07:03:09 GMT 53.390156 -2.190642 36,000 302 428 64
2019-11-30 07:03:06 GMT 53.390156 -2.190642 36,000 302 428 64
2019-11-30 07:03:03 GMT 53.386642 -2.181022 36,025 302 429 0
2019-11-30 07:03:00 GMT 53.384628 -2.175371 36,000 302 428 0
2019-11-30 07:02:57 GMT 53.381744 -2.167603 36,025 302 429 0
2019-11-30 07:02:54 GMT 53.378239 -2.157763 36,000 302 429 -64
2019-11-30 07:02:51 GMT 53.374142 -2.146454 36,025 302 429 -64
2019-11-30 07:02:48 GMT 53.372093 -2.140799 36,025 302 429 0
2019-11-30 07:02:45 GMT 53.369255 -2.132802 36,025 302 428 0
2019-11-30 07:02:42 GMT 53.365528 -2.122785 36,025 302 428 0
2019-11-30 07:02:39 GMT 53.362690 -2.114707 36,025 302 429 64
2019-11-30 07:02:36 GMT 53.359386 -2.105821 36,025 302 429 64
2019-11-30 07:02:33 GMT 53.356499 -2.097662 36,000 302 429 64
2019-11-30 07:02:30 GMT 53.353054 -2.088776 36,000 302 429 64
2019-11-30 07:02:27 GMT 53.350113 -2.080104 36,000 302 429 0
2019-11-30 07:02:24 GMT 53.346817 -2.071237 36,000 302 429 0
2019-11-30 07:02:21 GMT 53.343277 -2.061471 36,000 302 430 0
2019-11-30 07:02:18 GMT 53.340813 -2.054686 36,000 302 430 0
2019-11-30 07:02:15 GMT 53.337662 -2.046361 36,000 302 430 0
2019-11-30 07:02:12 GMT 53.334991 -2.038852 36,000 302 429 0
2019-11-30 07:02:09 GMT 53.331894 -2.030509 36,000 302 429 0
2019-11-30 07:02:06 GMT 53.328964 -2.022426 36,000 302 429 0
2019-11-30 07:02:03 GMT 53.322418 -2.004299 36,000 302 430 0
2019-11-30 07:02:00 GMT 53.319122 -1.995353 36,000 302 430 0
2019-11-30 07:01:57 GMT 53.319122 -1.995353 36,000 303 430 0
2019-11-30 07:01:54 GMT 53.315578 -1.985779 36,000 303 430 0
2019-11-30 07:01:51 GMT 53.313126 -1.979579 36,000 303 430 0
2019-11-30 07:01:48 GMT 53.310745 -1.972831 36,000 304 430 0
2019-11-30 07:01:45 GMT 53.306362 -1.962352 36,000 306 431 0
2019-11-30 07:01:42 GMT 53.302826 -1.954468 36,000 309 431 0
2019-11-30 07:01:39 GMT 53.299194 -1.946600 36,000 309 431 0
2019-11-30 07:01:36 GMT 53.295914 -1.939950 36,000 311 431 0
2019-11-30 07:01:33 GMT 53.290695 -1.929984 36,000 313 431 64
2019-11-30 07:01:30 GMT 53.286118 -1.922372 36,000 320 432 0
2019-11-30 07:01:27 GMT 53.282295 -1.916226 36,000 316 431 64
2019-11-30 07:01:24 GMT 53.274708 -1.904835 36,000 319 432 0
2019-11-30 07:01:21 GMT 53.268951 -1.896633 36,000 319 432 0
2019-11-30 07:01:18 GMT 53.268951 -1.896633 36,000 322 433 0
2019-11-30 07:01:15 GMT 53.265198 -1.891610 36,000 329 433 64
2019-11-30 07:01:12 GMT 53.259716 -1.884882 36,000 327 433 -64
2019-11-30 07:01:09 GMT 53.255108 -1.879551 36,000 327 433 -64
2019-11-30 07:01:06 GMT 53.250454 -1.874381 36,000 328 433 -64
2019-11-30 07:01:03 GMT 53.244690 -1.868304 36,000 329 434 0
2019-11-30 07:01:00 GMT 53.239559 -1.863071 36,000 329 434 64
2019-11-30 07:00:57 GMT 53.234436 -1.857788 36,000 329 434 0
2019-11-30 07:00:54 GMT 53.229675 -1.852923 36,000 329 434 0
2019-11-30 07:00:51 GMT 53.220108 -1.843192 36,000 329 433 64
2019-11-30 07:00:48 GMT 53.214283 -1.837302 36,000 329 433 64
2019-11-30 07:00:45 GMT 53.214283 -1.837302 36,000 329 434 64
2019-11-30 07:00:42 GMT 53.209167 -1.832049 36,000 329 434 64
2019-11-30 07:00:39 GMT 53.203720 -1.826477 36,000 329 434 0
2019-11-30 07:00:36 GMT 53.197540 -1.820199 36,000 329 434 -64
2019-11-30 07:00:32 GMT 53.192448 -1.815006 36,000 329 434 -64
2019-11-30 07:00:29 GMT 53.186600 -1.809056 36,000 329 434 -64
2019-11-30 07:00:26 GMT 53.180813 -1.803131 36,000 329 433 0
2019-11-30 07:00:23 GMT 53.176018 -1.798284 36,000 329 434 0
2019-11-30 07:00:20 GMT 53.170898 -1.793126 36,000 329 434 0
2019-11-30 07:00:17 GMT 53.161972 -1.784101 36,000 329 433 64
2019-11-30 07:00:14 GMT 53.161972 -1.784101 36,000 329 433 0
2019-11-30 07:00:11 GMT 53.156185 -1.778170 36,000 329 434 -64
2019-11-30 07:00:08 GMT 53.151390 -1.773323 36,000 329 433 0
2019-11-30 07:00:05 GMT 53.144897 -1.766759 36,000 329 433 -64
2019-11-30 07:00:02 GMT 53.140823 -1.762521 36,000 329 434 -64
2019-11-30 06:59:59 GMT 53.135376 -1.756949 36,000 329 433 -64
2019-11-30 06:59:56 GMT 53.130569 -1.752162 36,000 329 433 0
2019-11-30 06:59:53 GMT 53.125462 -1.746907 36,025 329 432 0
2019-11-30 06:59:50 GMT 53.121048 -1.742432 36,000 329 433 0
2019-11-30 06:59:47 GMT 53.111168 -1.732366 36,000 329 433 0
2019-11-30 06:59:41 GMT 53.105347 -1.726423 36,000 329 433 0
2019-11-30 06:59:38 GMT 53.099529 -1.720572 36,000 329 433 0
2019-11-30 06:59:35 GMT 53.094784 -1.715672 36,000 329 433 0
2019-11-30 06:59:32 GMT 53.088638 -1.709473 36,000 329 433 0
2019-11-30 06:59:29 GMT 53.083511 -1.704254 36,000 329 433 0
2019-11-30 06:59:26 GMT 53.078396 -1.699114 36,000 329 433 0
2019-11-30 06:59:23 GMT 53.073647 -1.694249 36,000 329 433 0
2019-11-30 06:59:20 GMT 53.069550 -1.690090 36,000 329 433 0
2019-11-30 06:59:17 GMT 53.064056 -1.684596 36,000 329 433 0
2019-11-30 06:59:14 GMT 53.058613 -1.679025 36,000 329 433 0
2019-11-30 06:59:11 GMT 53.053482 -1.673889 36,000 329 433 0
2019-11-30 06:59:08 GMT 53.043575 -1.663879 36,000 329 433 576
2019-11-30 06:59:05 GMT 53.043575 -1.663879 36,000 329 433 64
2019-11-30 06:59:02 GMT 53.037476 -1.657680 36,000 329 433 128
2019-11-30 06:58:59 GMT 53.033379 -1.653521 36,000 329 433 128
2019-11-30 06:58:56 GMT 53.029282 -1.649362 36,000 329 433 128
2019-11-30 06:58:53 GMT 53.023140 -1.643162 35,975 329 433 192
2019-11-30 06:58:50 GMT 53.011501 -1.631391 35,950 329 433 576
2019-11-30 06:58:47 GMT 53.011501 -1.631391 35,950 329 433 192
2019-11-30 06:58:44 GMT 53.008102 -1.627938 35,950 329 433 192
2019-11-30 06:58:41 GMT 53.001957 -1.621739 35,950 329 433 448
2019-11-30 06:58:38 GMT 52.996857 -1.616592 35,950 329 433 576
2019-11-30 06:58:35 GMT 52.985962 -1.605606 35,875 329 431 768
2019-11-30 06:58:32 GMT 52.985962 -1.605606 35,850 329 431 768
2019-11-30 06:58:29 GMT 52.982574 -1.602097 35,775 329 430 832
2019-11-30 06:58:26 GMT 52.976772 -1.596313 35,800 329 430 832
2019-11-30 06:58:23 GMT 52.973053 -1.592560 35,775 329 429 832
2019-11-30 06:58:20 GMT 52.966625 -1.586033 35,700 329 429 768
2019-11-30 06:58:17 GMT 52.957489 -1.576843 35,625 329 428 896
2019-11-30 06:58:14 GMT 52.957489 -1.576843 35,575 329 428 1600
2019-11-30 06:58:11 GMT 52.951729 -1.571045 35,575 329 428 1152
2019-11-30 06:58:08 GMT 52.945312 -1.564636 35,525 329 428 1216
2019-11-30 06:58:05 GMT 52.942276 -1.561550 35,450 329 428 1536
2019-11-30 06:58:02 GMT 52.936523 -1.555786 35,350 329 428 1792
2019-11-30 06:57:59 GMT 52.931076 -1.550369 35,275 329 430 1856
2019-11-30 06:57:56 GMT 52.925983 -1.545306 35,200 329 430 1856
2019-11-30 06:57:53 GMT 52.921932 -1.541225 35,075 329 431 1856
2019-11-30 06:57:50 GMT 52.911346 -1.530609 34,900 329 432 1792
2019-11-30 06:57:47 GMT 52.911346 -1.530609 34,925 329 433 1664
2019-11-30 06:57:44 GMT 52.905212 -1.524429 34,825 329 433 1664
2019-11-30 06:57:41 GMT 52.900406 -1.519623 34,725 329 433 1536
2019-11-30 06:57:38 GMT 52.889767 -1.508972 34,575 329 434 1344
2019-11-30 06:57:35 GMT 52.889767 -1.508972 34,575 329 434 1344
2019-11-30 06:57:32 GMT 52.885670 -1.504892 34,525 329 434 1280
2019-11-30 06:57:29 GMT 52.879478 -1.498692 34,425 329 434 1216
2019-11-30 06:57:26 GMT 52.875381 -1.494533 34,375 329 434 1216
2019-11-30 06:57:23 GMT 52.864395 -1.483547 34,275 329 434 896
2019-11-30 06:57:20 GMT 52.864395 -1.483547 34,225 329 434 1024
2019-11-30 06:57:17 GMT 52.858902 -1.478054 34,200 329 434 896
2019-11-30 06:57:14 GMT 52.853073 -1.472244 34,050 329 432 832
2019-11-30 06:57:11 GMT 52.848953 -1.468124 34,125 329 433 640
2019-11-30 06:57:08 GMT 52.844833 -1.464081 34,100 329 433 640
2019-11-30 06:57:05 GMT 52.839386 -1.458588 34,025 329 431 960
2019-11-30 06:57:02 GMT 52.834274 -1.453491 33,925 329 430 1408
2019-11-30 06:56:59 GMT 52.829132 -1.448364 33,975 329 431 1024
2019-11-30 06:56:56 GMT 52.823383 -1.442583 33,875 329 430 1216
2019-11-30 06:56:53 GMT 52.818283 -1.437531 33,675 329 430 1280
2019-11-30 06:56:50 GMT 52.813187 -1.432460 33,800 329 430 1280
2019-11-30 06:56:47 GMT 52.809448 -1.428680 33,750 329 429 1280
2019-11-30 06:56:44 GMT 52.801987 -1.421280 33,600 329 430 1408
2019-11-30 06:56:41 GMT 52.798244 -1.417550 33,425 329 430 1280
2019-11-30 06:56:38 GMT 52.792465 -1.411743 33,525 329 430 1344
2019-11-30 06:56:35 GMT 52.787350 -1.406721 33,425 329 430 1280
2019-11-30 06:56:32 GMT 52.777855 -1.397226 33,300 329 429 1344
2019-11-30 06:56:29 GMT 52.772781 -1.392136 33,250 329 429 1408
2019-11-30 06:56:26 GMT 52.772781 -1.392136 33,200 329 429 1408
2019-11-30 06:56:23 GMT 52.768707 -1.388092 33,150 329 429 1408
2019-11-30 06:56:20 GMT 52.762573 -1.381989 33,100 329 429 1408
2019-11-30 06:56:17 GMT 52.757126 -1.376572 33,050 329 429 1408
2019-11-30 06:56:14 GMT 52.752064 -1.371486 32,850 329 430 1664
2019-11-30 06:56:11 GMT 52.741871 -1.361363 32,450 329 432 1728
2019-11-30 06:56:08 GMT 52.741871 -1.361363 32,725 329 431 1792
2019-11-30 06:56:05 GMT 52.737122 -1.356576 32,375 329 432 1920
2019-11-30 06:56:02 GMT 52.726547 -1.346054 32,550 329 431 1792
2019-11-30 06:55:59 GMT 52.726547 -1.346054 32,500 329 432 1856
2019-11-30 06:55:56 GMT 52.721432 -1.340960 32,375 329 432 1920
2019-11-30 06:55:53 GMT 52.716293 -1.335907 32,300 329 432 1792
2019-11-30 06:55:50 GMT 52.710846 -1.330490 32,100 329 434 1792
2019-11-30 06:55:47 GMT 52.706039 -1.325684 32,125 329 433 1664
2019-11-30 06:55:44 GMT 52.701557 -1.321263 31,775 329 434 1728
2019-11-30 06:55:41 GMT 52.695740 -1.315536 31,950 329 434 1728
2019-11-30 06:55:38 GMT 52.689919 -1.309727 31,850 329 434 1856
2019-11-30 06:55:35 GMT 52.686474 -1.306353 31,425 329 435 1984
2019-11-30 06:55:32 GMT 52.680588 -1.300507 31,675 329 435 2048
2019-11-30 06:55:29 GMT 52.676140 -1.296073 30,800 330 437 1152
2019-11-30 06:55:26 GMT 52.669201 -1.289246 31,400 329 437 1856
2019-11-30 06:55:23 GMT 52.665058 -1.285086 31,350 329 437 1728
2019-11-30 06:55:20 GMT 52.659164 -1.279297 31,275 329 438 1536
2019-11-30 06:55:17 GMT 52.650146 -1.270370 31,050 330 437 1152
2019-11-30 06:55:11 GMT 52.644249 -1.264526 31,000 330 437 960
2019-11-30 06:55:08 GMT 52.639069 -1.259384 30,975 330 437 1088
2019-11-30 06:55:05 GMT 52.633530 -1.253967 30,900 330 437 960
2019-11-30 06:55:02 GMT 52.629028 -1.249538 30,825 329 436 896
2019-11-30 06:54:59 GMT 52.623814 -1.244359 30,800 329 436 832
2019-11-30 06:54:56 GMT 52.617966 -1.238632 30,125 330 430 1536
2019-11-30 06:54:53 GMT 52.613480 -1.234235 30,750 330 435 768
2019-11-30 06:54:50 GMT 52.607666 -1.228485 30,675 329 432 832
2019-11-30 06:54:47 GMT 52.603191 -1.224034 29,850 330 429 1344
2019-11-30 06:54:44 GMT 52.598396 -1.219325 30,625 330 431 896
2019-11-30 06:54:41 GMT 52.593292 -1.214294 30,575 329 430 1088
2019-11-30 06:54:38 GMT 52.587845 -1.208954 30,475 330 430 1280
2019-11-30 06:54:35 GMT 52.582054 -1.203238 30,425 330 430 1600
2019-11-30 06:54:32 GMT 52.576263 -1.197510 30,325 330 430 1600
2019-11-30 06:54:29 GMT 52.572876 -1.194153 30,225 330 430 1600
2019-11-30 06:54:26 GMT 52.567066 -1.188485 30,200 330 430 1600
2019-11-30 06:54:23 GMT 52.562668 -1.184158 30,150 330 430 1536
2019-11-30 06:54:20 GMT 52.556534 -1.178131 30,000 330 430 1408
2019-11-30 06:54:17 GMT 52.552074 -1.173732 29,950 330 429 1344
2019-11-30 06:54:14 GMT 52.547653 -1.169434 29,875 330 429 1344
2019-11-30 06:54:11 GMT 52.540531 -1.162354 29,750 330 428 1344
2019-11-30 06:54:08 GMT 52.536118 -1.158066 29,700 330 427 1280
2019-11-30 06:54:05 GMT 52.530716 -1.152725 29,650 330 427 1280
2019-11-30 06:54:02 GMT 52.527328 -1.149368 29,475 330 424 1344
2019-11-30 06:53:59 GMT 52.520885 -1.143049 29,575 329 427 1216
2019-11-30 06:53:56 GMT 52.516136 -1.138419 29,475 329 427 1152
2019-11-30 06:53:53 GMT 52.512089 -1.134417 29,350 330 424 1344
2019-11-30 06:53:50 GMT 52.507050 -1.129456 29,325 330 425 1280
2019-11-30 06:53:47 GMT 52.500637 -1.123195 29,275 330 424 1344
2019-11-30 06:53:44 GMT 52.495281 -1.117937 29,250 330 424 1344
2019-11-30 06:53:41 GMT 52.490891 -1.113663 29,025 330 421 1152
2019-11-30 06:53:38 GMT 52.485878 -1.108677 29,025 330 422 1216
2019-11-30 06:53:35 GMT 52.480526 -1.103498 29,025 330 421 1152
2019-11-30 06:53:32 GMT 52.476151 -1.099243 28,975 330 422 1216
2019-11-30 06:53:29 GMT 52.471169 -1.094317 28,900 330 420 1280
2019-11-30 06:53:26 GMT 52.461811 -1.085214 28,750 330 419 1664
2019-11-30 06:53:20 GMT 52.456192 -1.079636 28,650 330 419 1728
2019-11-30 06:53:17 GMT 52.450546 -1.074149 28,600 330 419 1664
2019-11-30 06:53:14 GMT 52.446545 -1.070225 28,525 330 419 1728
2019-11-30 06:53:11 GMT 52.441544 -1.065369 28,475 330 418 1792
2019-11-30 06:53:08 GMT 52.436234 -1.060181 28,275 330 418 1792
2019-11-30 06:53:05 GMT 52.431274 -1.055315 28,250 330 418 1792
2019-11-30 06:53:02 GMT 52.425919 -1.050136 28,050 330 418 1792
2019-11-30 06:52:59 GMT 52.419960 -1.044329 28,025 330 418 1792
2019-11-30 06:52:56 GMT 52.415634 -1.040115 27,800 330 418 1856
2019-11-30 06:52:53 GMT 52.411652 -1.036224 27,875 330 418 1856
2019-11-30 06:52:50 GMT 52.406693 -1.031381 27,625 330 418 1792
2019-11-30 06:52:47 GMT 52.399704 -1.024628 27,725 330 418 1792
2019-11-30 06:52:44 GMT 52.395721 -1.020737 27,600 330 418 1664
2019-11-30 06:52:41 GMT 52.391739 -1.016846 27,525 330 417 1664
2019-11-30 06:52:38 GMT 52.386768 -1.011998 27,375 330 417 1600
2019-11-30 06:52:35 GMT 52.382446 -1.007843 27,225 330 417 1536
2019-11-30 06:52:32 GMT 52.376495 -1.002045 27,275 330 417 1536
2019-11-30 06:52:29 GMT 52.371826 -0.997543 27,150 330 416 1600
2019-11-30 06:52:26 GMT 52.361584 -0.987671 27,050 330 416 1664
2019-11-30 06:52:23 GMT 52.361584 -0.987671 26,975 330 416 1728
2019-11-30 06:52:20 GMT 52.357628 -0.983826 26,850 330 414 1856
2019-11-30 06:52:17 GMT 52.351017 -0.977469 26,850 330 415 1792
2019-11-30 06:52:14 GMT 52.345413 -0.972061 26,675 329 414 1856
2019-11-30 06:52:11 GMT 52.341148 -0.967817 26,625 329 414 1856
2019-11-30 06:52:08 GMT 52.336899 -0.963593 26,600 329 414 1856
2019-11-30 06:52:05 GMT 52.331421 -0.957929 26,450 328 414 1856
2019-11-30 06:52:02 GMT 52.326599 -0.952835 26,375 327 414 1792
2019-11-30 06:51:59 GMT 52.322159 -0.947952 26,250 326 413 1728
2019-11-30 06:51:56 GMT 52.313076 -0.937683 26,125 325 412 1728
2019-11-30 06:51:53 GMT 52.313076 -0.937683 25,925 325 412 1792
2019-11-30 06:51:50 GMT 52.308701 -0.932661 26,025 325 412 1792
2019-11-30 06:51:47 GMT 52.304077 -0.927277 25,900 325 412 1792
2019-11-30 06:51:44 GMT 52.299728 -0.922165 25,725 325 411 1792
2019-11-30 06:51:41 GMT 52.295425 -0.917130 25,775 325 411 1792
2019-11-30 06:51:38 GMT 52.288963 -0.909511 25,600 325 410 1728
2019-11-30 06:51:35 GMT 52.285892 -0.905980 25,475 325 396 2112
2019-11-30 06:51:32 GMT 52.279697 -0.898760 25,475 325 410 1664
2019-11-30 06:51:29 GMT 52.276932 -0.895538 25,375 325 409 1664
2019-11-30 06:51:26 GMT 52.271690 -0.889422 25,300 325 409 1600
2019-11-30 06:51:23 GMT 52.267090 -0.884094 25,125 325 407 1472
2019-11-30 06:51:20 GMT 52.261265 -0.877258 25,125 325 407 1472
2019-11-30 06:51:17 GMT 52.257587 -0.873021 25,050 325 406 1472
2019-11-30 06:51:14 GMT 52.253304 -0.868077 24,975 325 406 1536
2019-11-30 06:51:11 GMT 52.248463 -0.862348 24,750 325 403 1664
2019-11-30 06:51:08 GMT 52.242645 -0.855637 24,825 325 404 1600
2019-11-30 06:51:05 GMT 52.239029 -0.851440 24,725 325 402 1728
2019-11-30 06:51:02 GMT 52.233891 -0.845476 24,650 325 402 1792
2019-11-30 06:50:59 GMT 52.231155 -0.842285 24,625 325 402 1792
2019-11-30 06:50:56 GMT 52.225113 -0.835266 24,475 325 402 1856
2019-11-30 06:50:53 GMT 52.220020 -0.829232 24,300 325 401 1856
2019-11-30 06:50:50 GMT 52.216095 -0.824738 24,300 325 400 1920
2019-11-30 06:50:47 GMT 52.211884 -0.819778 23,875 325 393 2112
2019-11-30 06:50:44 GMT 52.201675 -0.807877 23,875 325 398 1920
2019-11-30 06:50:41 GMT 52.201675 -0.807877 23,800 325 397 1920
2019-11-30 06:50:38 GMT 52.198700 -0.804443 23,825 325 398 1920
2019-11-30 06:50:35 GMT 52.193020 -0.797764 23,750 325 398 1920
2019-11-30 06:50:32 GMT 52.188538 -0.792542 23,650 325 397 1984
2019-11-30 06:50:29 GMT 52.184372 -0.787659 23,575 325 397 2048
2019-11-30 06:50:26 GMT 52.180206 -0.782852 23,475 325 397 2048
2019-11-30 06:50:23 GMT 52.177231 -0.779343 23,325 325 395 2112
2019-11-30 06:50:20 GMT 52.171829 -0.773087 23,275 325 395 2112
2019-11-30 06:50:17 GMT 52.167664 -0.768280 23,225 325 395 2112
2019-11-30 06:50:14 GMT 52.163227 -0.763079 23,000 325 394 2112
2019-11-30 06:50:11 GMT 52.158478 -0.757586 22,950 325 394 2176
2019-11-30 06:50:08 GMT 52.154335 -0.752720 22,875 325 394 2176
2019-11-30 06:50:05 GMT 52.150192 -0.747855 22,675 325 395 2112
2019-11-30 06:50:02 GMT 52.145737 -0.742722 22,650 325 395 2112
2019-11-30 06:49:59 GMT 52.140381 -0.736542 22,500 325 393 2112
2019-11-30 06:49:56 GMT 52.136810 -0.732422 22,350 325 393 2112
2019-11-30 06:49:53 GMT 52.130905 -0.725632 22,275 325 392 2112
2019-11-30 06:49:50 GMT 52.126144 -0.720139 22,225 325 393 2112
2019-11-30 06:49:47 GMT 52.118210 -0.710815 21,850 325 391 2176
2019-11-30 06:49:44 GMT 52.118210 -0.710815 21,875 325 391 2176
2019-11-30 06:49:41 GMT 52.114674 -0.706735 21,775 325 391 2176
2019-11-30 06:49:38 GMT 52.109409 -0.700535 21,775 325 391 2176
2019-11-30 06:49:35 GMT 52.106186 -0.696793 21,700 325 391 2176
2019-11-30 06:49:32 GMT 52.100876 -0.690689 21,475 325 389 2304
2019-11-30 06:49:29 GMT 52.095909 -0.684841 21,400 325 389 2304
2019-11-30 06:49:26 GMT 52.091537 -0.679779 21,325 325 389 2240
2019-11-30 06:49:23 GMT 52.088608 -0.676346 21,250 325 389 2240
2019-11-30 06:49:20 GMT 52.076981 -0.662766 21,025 325 388 2240
2019-11-30 06:49:17 GMT 52.074356 -0.659729 20,925 325 387 2176
2019-11-30 06:49:14 GMT 52.074356 -0.659729 20,800 325 386 2176
2019-11-30 06:49:11 GMT 52.070309 -0.654942 20,725 325 386 2176
2019-11-30 06:49:08 GMT 52.064255 -0.647812 20,625 325 385 2240
2019-11-30 06:49:05 GMT 52.057087 -0.639326 20,375 324 384 2368
2019-11-30 06:49:02 GMT 52.057087 -0.639326 20,375 324 384 2368
2019-11-30 06:48:59 GMT 52.052765 -0.634232 20,275 324 383 2432
2019-11-30 06:48:56 GMT 52.048473 -0.629203 20,100 324 382 2368
2019-11-30 06:48:53 GMT 52.044800 -0.624771 20,000 324 382 2368
2019-11-30 06:48:50 GMT 52.040516 -0.619707 19,950 324 381 2368
2019-11-30 06:48:47 GMT 52.036240 -0.614624 19,775 324 380 2304
2019-11-30 06:48:44 GMT 52.031113 -0.608597 19,625 325 380 2176
2019-11-30 06:48:41 GMT 52.026581 -0.603256 19,550 325 378 2048
2019-11-30 06:48:38 GMT 52.022598 -0.598602 19,275 325 375 2368
2019-11-30 06:48:35 GMT 52.018356 -0.593654 19,350 325 376 2176
2019-11-30 06:48:32 GMT 52.014397 -0.589103 19,250 325 376 2240
2019-11-30 06:48:29 GMT 52.010742 -0.584793 19,125 325 374 2368
2019-11-30 06:48:26 GMT 52.007088 -0.580549 19,025 325 374 2368
2019-11-30 06:48:23 GMT 52.002869 -0.575638 18,975 325 373 2368
2019-11-30 06:48:20 GMT 51.997787 -0.569839 18,725 325 372 2432
2019-11-30 06:48:17 GMT 51.993896 -0.565262 18,600 325 372 2432
2019-11-30 06:48:14 GMT 51.989960 -0.560760 18,300 324 343 2432
2019-11-30 06:48:11 GMT 51.984650 -0.554574 18,375 325 371 2496
2019-11-30 06:48:08 GMT 51.981628 -0.551071 18,300 325 370 2560
2019-11-30 06:48:05 GMT 51.975807 -0.544216 18,100 325 369 2496
2019-11-30 06:48:02 GMT 51.972748 -0.540695 17,350 325 346 2880
2019-11-30 06:47:59 GMT 51.968636 -0.535819 17,900 325 368 2496
2019-11-30 06:47:56 GMT 51.963959 -0.530319 17,775 324 367 2496
2019-11-30 06:47:53 GMT 51.960114 -0.525818 17,625 325 366 2560
2019-11-30 06:47:50 GMT 51.957092 -0.522243 17,450 325 366 2560
2019-11-30 06:47:47 GMT 51.951599 -0.515887 17,375 325 364 2624
2019-11-30 06:47:44 GMT 51.948853 -0.512669 17,275 325 364 2688
2019-11-30 06:47:41 GMT 51.944229 -0.507278 17,200 325 364 2688
2019-11-30 06:47:38 GMT 51.939541 -0.501918 16,850 325 363 2816
2019-11-30 06:47:35 GMT 51.935486 -0.497131 16,825 325 362 2752
2019-11-30 06:47:32 GMT 51.931908 -0.493051 16,725 325 362 2752
2019-11-30 06:47:29 GMT 51.927246 -0.487747 16,550 325 362 2688
2019-11-30 06:47:26 GMT 51.923996 -0.484009 16,325 325 360 2432
2019-11-30 06:47:23 GMT 51.918549 -0.477753 16,250 325 359 2304
2019-11-30 06:47:20 GMT 51.913651 -0.472183 16,200 325 360 2368
2019-11-30 06:47:17 GMT 51.911751 -0.469979 16,050 325 359 2304
2019-11-30 06:47:14 GMT 51.907150 -0.464706 15,725 325 355 2176
2019-11-30 06:47:11 GMT 51.903091 -0.460092 15,775 325 356 2112
2019-11-30 06:47:08 GMT 51.899094 -0.455475 15,725 325 355 2176
2019-11-30 06:47:05 GMT 51.895889 -0.451736 15,600 325 353 2240
2019-11-30 06:47:02 GMT 51.891129 -0.446208 15,475 325 352 2368
2019-11-30 06:46:59 GMT 51.886658 -0.440979 15,350 325 350 2560
2019-11-30 06:46:56 GMT 51.882469 -0.436096 15,250 325 346 2944
2019-11-30 06:46:53 GMT 51.879089 -0.432178 14,800 325 348 2752
2019-11-30 06:46:50 GMT 51.871262 -0.423048 14,875 325 346 2880
2019-11-30 06:46:47 GMT 51.871262 -0.423048 14,800 325 346 2944
2019-11-30 06:46:44 GMT 51.866364 -0.417252 14,600 324 346 3008
2019-11-30 06:46:41 GMT 51.864029 -0.414511 14,025 324 344 2560
2019-11-30 06:46:38 GMT 51.859360 -0.409092 14,400 324 345 2880
2019-11-30 06:46:35 GMT 51.855240 -0.404193 14,225 324 344 2560
2019-11-30 06:46:32 GMT 51.851933 -0.400238 13,875 324 343 1920
2019-11-30 06:46:29 GMT 51.844761 -0.391769 13,925 324 343 1920
2019-11-30 06:46:26 GMT 51.844761 -0.391769 13,850 324 343 1984
2019-11-30 06:46:23 GMT 51.841179 -0.387573 13,750 325 343 1728
2019-11-30 06:46:20 GMT 51.836010 -0.381622 13,675 325 343 1728
2019-11-30 06:46:17 GMT 51.833450 -0.378571 13,650 325 343 1856
2019-11-30 06:46:14 GMT 51.828793 -0.373230 13,475 325 341 2560
2019-11-30 06:46:11 GMT 51.825989 -0.369972 13,325 325 339 2752
2019-11-30 06:46:08 GMT 51.821671 -0.364914 13,275 325 338 2944
2019-11-30 06:46:05 GMT 51.817383 -0.359876 13,075 324 337 3328
2019-11-30 06:46:02 GMT 51.813858 -0.355719 12,975 324 337 3456
2019-11-30 06:45:59 GMT 51.810081 -0.351257 12,725 324 337 3520
2019-11-30 06:45:56 GMT 51.802780 -0.342655 12,500 324 337 3520
2019-11-30 06:45:53 GMT 51.802780 -0.342655 10,850 324 313 1536
2019-11-30 06:45:50 GMT 51.799000 -0.338135 12,275 324 337 3456
2019-11-30 06:45:47 GMT 51.795181 -0.333747 11,925 324 337 3072
2019-11-30 06:45:44 GMT 51.791702 -0.329516 11,800 324 336 2752
2019-11-30 06:45:41 GMT 51.786430 -0.323334 11,675 324 335 2560
2019-11-30 06:45:38 GMT 51.782684 -0.318826 11,400 324 333 2176
2019-11-30 06:45:35 GMT 51.779495 -0.315018 11,450 324 331 1984
2019-11-30 06:45:32 GMT 51.775314 -0.309993 11,300 324 327 1600
2019-11-30 06:45:29 GMT 51.772385 -0.306504 11,250 324 323 1408
2019-11-30 06:45:26 GMT 51.768787 -0.302200 11,200 324 323 1408
2019-11-30 06:45:22 GMT 51.763527 -0.296021 11,075 324 315 1472
2019-11-30 06:45:19 GMT 51.759804 -0.291519 11,000 324 311 1600
2019-11-30 06:45:16 GMT 51.757057 -0.288162 10,850 324 307 1664
2019-11-30 06:45:13 GMT 51.753891 -0.284348 10,850 324 304 1728
2019-11-30 06:45:10 GMT 51.750259 -0.280075 10,750 324 300 1856
2019-11-30 06:45:07 GMT 51.747391 -0.276588 10,550 324 290 2624
2019-11-30 06:45:04 GMT 51.742996 -0.271318 10,625 324 295 2304
2019-11-30 06:45:01 GMT 51.740623 -0.268478 10,525 324 293 2624
2019-11-30 06:44:58 GMT 51.736713 -0.263824 10,100 324 287 2944
2019-11-30 06:44:55 GMT 51.730545 -0.256546 10,175 324 286 3008
2019-11-30 06:44:52 GMT 51.730545 -0.256546 9,900 325 283 3584
2019-11-30 06:44:49 GMT 51.728394 -0.254096 9,800 326 282 3584
2019-11-30 06:44:46 GMT 51.724960 -0.250236 8,850 341 278 3712
2019-11-30 06:44:43 GMT 51.721939 -0.246970 9,600 329 281 3520
2019-11-30 06:44:40 GMT 51.714249 -0.239992 9,275 333 280 3520
2019-11-30 06:44:37 GMT 51.714249 -0.239992 8,850 341 278 3712
2019-11-30 06:44:34 GMT 51.711670 -0.238113 9,025 338 279 3584
2019-11-30 06:44:31 GMT 51.708023 -0.235909 8,325 343 275 4160
2019-11-30 06:44:28 GMT 51.704132 -0.233831 8,625 343 277 3840
2019-11-30 06:44:25 GMT 51.700699 -0.232198 8,500 344 276 3904
2019-11-30 06:44:22 GMT 51.695297 -0.229525 8,100 344 276 4032
2019-11-30 06:44:19 GMT 51.693607 -0.228729 7,975 343 276 4032
2019-11-30 06:44:16 GMT 51.684586 -0.224180 7,625 343 275 4160
2019-11-30 06:44:13 GMT 51.684586 -0.224180 7,525 343 276 4160
2019-11-30 06:44:10 GMT 51.682159 -0.222993 7,425 343 276 4032
2019-11-30 06:44:07 GMT 51.678524 -0.221100 7,275 343 276 3968
2019-11-30 06:44:04 GMT 51.673637 -0.218582 6,875 343 274 3776
2019-11-30 06:44:01 GMT 51.671215 -0.217361 6,700 343 275 3648
2019-11-30 06:43:58 GMT 51.667603 -0.215495 6,600 343 277 3008
2019-11-30 06:43:55 GMT 51.662930 -0.213165 6,350 343 277 2880
2019-11-30 06:43:52 GMT 51.659271 -0.211338 6,250 343 277 2688
2019-11-30 06:43:49 GMT 51.652405 -0.207924 6,100 343 277 2112
2019-11-30 06:43:46 GMT 51.652405 -0.207924 5,875 343 275 1472
2019-11-30 06:43:43 GMT 51.649017 -0.206216 5,875 343 275 1024
2019-11-30 06:43:40 GMT 51.645844 -0.204620 5,850 343 276 896
2019-11-30 06:43:37 GMT 51.641933 -0.202637 5,825 343 276 512
2019-11-30 06:43:34 GMT 51.638023 -0.200729 5,775 343 277 128
2019-11-30 06:43:31 GMT 51.631439 -0.197457 5,775 343 276 0
2019-11-30 06:43:27 GMT 51.625580 -0.194488 5,775 343 277 0
2019-11-30 06:43:21 GMT 51.621918 -0.192566 5,775 342 276 0
2019-11-30 06:43:18 GMT 51.618301 -0.190628 5,775 341 276 -64
2019-11-30 06:43:15 GMT 51.614655 -0.188599 5,775 341 276 -64
2019-11-30 06:43:12 GMT 51.610565 -0.186174 5,775 339 276 -64
2019-11-30 06:43:09 GMT 51.608185 -0.184689 5,775 338 276 -64
2019-11-30 06:43:06 GMT 51.604645 -0.182419 5,775 337 275 64
2019-11-30 06:43:03 GMT 51.601135 -0.180012 5,775 357 272 64
2019-11-30 06:43:00 GMT 51.593891 -0.175095 5,775 339 275 128
2019-11-30 06:42:57 GMT 51.589050 -0.172729 5,775 342 274 0
2019-11-30 06:42:54 GMT 51.589050 -0.172729 5,750 345 273 0
2019-11-30 06:42:51 GMT 51.586582 -0.171890 5,775 352 272 0
2019-11-30 06:42:48 GMT 51.582321 -0.171030 5,750 359 272 64
2019-11-30 06:42:45 GMT 51.579300 -0.170882 5,750 359 272 64
2019-11-30 06:42:42 GMT 51.574059 -0.171432 5,750 13 269 128
2019-11-30 06:42:39 GMT 51.571594 -0.172119 5,750 13 269 128
2019-11-30 06:42:36 GMT 51.567490 -0.173851 5,750 23 268 256
2019-11-30 06:42:33 GMT 51.563782 -0.176078 5,750 23 268 256
2019-11-30 06:42:30 GMT 51.560669 -0.178528 5,725 29 268 256
2019-11-30 06:42:27 GMT 51.557281 -0.181868 5,725 45 265 832
2019-11-30 06:42:24 GMT 51.554321 -0.185471 5,700 46 264 896
2019-11-30 06:42:21 GMT 51.551807 -0.189133 5,675 45 265 832
2019-11-30 06:42:18 GMT 51.549271 -0.193448 5,650 48 264 960
2019-11-30 06:42:15 GMT 51.547295 -0.197372 5,575 54 263 1216
2019-11-30 06:42:12 GMT 51.544827 -0.203171 5,550 56 262 1408
2019-11-30 06:42:09 GMT 51.542870 -0.208511 5,450 63 259 1344
2019-11-30 06:42:06 GMT 51.541428 -0.213394 5,400 66 259 1344
2019-11-30 06:42:03 GMT 51.540207 -0.218019 5,275 69 258 1408
2019-11-30 06:42:00 GMT 51.538818 -0.224075 5,150 70 257 1472
2019-11-30 06:41:57 GMT 51.537781 -0.228783 5,150 70 257 1472
2019-11-30 06:41:54 GMT 51.536400 -0.234909 5,100 70 257 1472
2019-11-30 06:41:51 GMT 51.535423 -0.239182 5,025 70 257 1472
2019-11-30 06:41:48 GMT 51.534256 -0.244594 4,950 70 257 1472
2019-11-30 06:41:45 GMT 51.533047 -0.249939 4,825 70 256 1472
2019-11-30 06:41:42 GMT 51.531742 -0.255661 4,675 70 256 1472
2019-11-30 06:41:39 GMT 51.530811 -0.259933 4,675 70 256 1472
2019-11-30 06:41:36 GMT 51.529369 -0.266418 4,650 70 256 1472
2019-11-30 06:41:33 GMT 51.528301 -0.271454 4,600 70 256 1472
2019-11-30 06:41:30 GMT 51.527042 -0.277176 4,425 61 256 1408
2019-11-30 06:41:27 GMT 51.525879 -0.282527 4,400 70 255 1536
2019-11-30 06:41:24 GMT 51.524529 -0.288620 4,325 70 254 1536
2019-11-30 06:41:21 GMT 51.523270 -0.293884 4,275 63 256 1408
2019-11-30 06:41:18 GMT 51.522171 -0.298041 4,125 61 256 1408
2019-11-30 06:41:15 GMT 51.520386 -0.303460 4,075 59 257 1408
2019-11-30 06:41:12 GMT 51.518478 -0.308304 4,025 53 258 1344
2019-11-30 06:41:09 GMT 51.516403 -0.312962 3,975 53 258 1344
2019-11-30 06:41:06 GMT 51.513382 -0.318975 3,850 49 259 1344
2019-11-30 06:41:00 GMT 51.509354 -0.326621 3,700 50 259 1472
2019-11-30 06:40:57 GMT 51.506744 -0.331650 3,675 50 256 1856
2019-11-30 06:40:54 GMT 51.504929 -0.335083 3,625 50 252 2304
2019-11-30 06:40:51 GMT 51.502834 -0.339127 3,475 50 246 2176
2019-11-30 06:40:48 GMT 51.500381 -0.343842 3,300 50 241 2176
2019-11-30 06:40:45 GMT 51.498505 -0.347443 3,125 50 237 2176
2019-11-30 06:40:42 GMT 51.496273 -0.351715 3,100 50 231 2240
2019-11-30 06:40:39 GMT 51.493526 -0.357056 2,975 50 230 2240
2019-11-30 06:40:36 GMT 51.490723 -0.362475 2,800 50 202 1600
2019-11-30 06:40:30 GMT 51.488113 -0.367448 2,675 50 218 2176
2019-11-30 06:40:27 GMT 51.486450 -0.370712 2,475 50 212 2176
2019-11-30 06:40:24 GMT 51.484169 -0.375061 2,475 50 210 2176
2019-11-30 06:40:19 GMT 51.481003 -0.381165 2,250 50 202 1600
2019-11-30 06:40:16 GMT 51.479187 -0.384596 2,125 49 197 1344
2019-11-30 06:40:12 GMT 51.477184 -0.388412 2,075 49 192 1344
2019-11-30 06:40:09 GMT 51.475601 -0.391388 2,000 49 187 1344
2019-11-30 06:40:06 GMT 51.473553 -0.395203 1,950 49 185 1344
2019-11-30 06:40:03 GMT 51.472485 -0.397339 1,875 50 182 1408
2019-11-30 06:39:59 GMT 51.469849 -0.402486 1,750 51 175 1408
2019-11-30 06:39:56 GMT 51.468521 -0.405306 1,700 53 173 1344
2019-11-30 06:39:53 GMT 51.467468 -0.407830 1,625 60 166 1344
2019-11-30 06:39:50 GMT 51.466461 -0.410874 1,575 66 162 1472
2019-11-30 06:39:47 GMT 51.465641 -0.414200 1,500 74 158 1600
2019-11-30 06:39:44 GMT 51.464943 -0.421448 1,325 87 151 1536
2019-11-30 06:39:41 GMT 51.464943 -0.421448 1,325 88 150 1536
2019-11-30 06:39:38 GMT 51.464905 -0.425201 1,225 89 147 1536
2019-11-30 06:39:35 GMT 51.464893 -0.428467 1,150 88 143 2496
2019-11-30 06:39:32 GMT 51.464848 -0.431366 1,050 89 143 2880
2019-11-30 06:39:28 GMT 51.464802 -0.437851 850 89 146 3072
2019-11-30 06:39:25 GMT 51.464802 -0.437851 750 90 149 2816
2019-11-30 06:39:22 GMT 51.464802 -0.441284 650 90 149 2816
2019-11-30 06:39:15 GMT 51.464813 -0.449103 250 90 151 2112
2019-11-30 06:39:12 GMT 51.464813 -0.453557 100 90 152 1920
2019-11-30 06:39:06 GMT 51.464848 -0.460052 -75 90 152 960
2019-11-30 06:39:01 GMT 51.464848 -0.465137 0 90 145
2019-11-30 06:38:55 GMT 51.464836 -0.471169 0 90 135
2019-11-30 06:38:52 GMT 51.464825 -0.474027 0 90 115
2019-11-30 06:38:45 GMT 51.464802 -0.479374 0 90 96
2019-11-30 06:38:42 GMT 51.464802 -0.481264 0 90 76
2019-11-30 06:38:31 GMT 51.464779 -0.485840 0 90 29
2019-11-30 06:37:51 GMT 51.464779 -0.486794 0 95 3
2019-11-30 06:37:40 GMT 51.464893 -0.487385 0 123 11
2019-11-30 06:37:36 GMT 51.465012 -0.487595 0 137 12
2019-11-30 06:37:24 GMT 51.465584 -0.487862 0 188 11
2019-11-30 06:37:20 GMT 51.465752 -0.487815 0 196 10
2019-11-30 06:37:13 GMT 51.466015 -0.487652 0 199 8
2019-11-30 06:37:10 GMT 51.466106 -0.487611 0 196 6
2019-11-30 06:37:07 GMT 51.466187 -0.487555 0 194 5
2019-11-30 06:36:46 GMT 51.466270 -0.487537 0 191 0
2019-11-30 06:36:41 GMT 51.466255 -0.487537 0 191 0
2019-11-30 06:36:31 GMT 51.466244 -0.487556 0 191 0
2019-11-30 06:36:20 GMT 51.466221 -0.487556 0 191 0
2019-11-30 06:36:15 GMT 51.466209 -0.487555 0 191 0
2019-11-30 06:36:09 GMT 51.466198 -0.487555 0 191 0
2019-11-30 06:35:56 GMT 51.466209 -0.487555 0 191 0
2019-11-30 06:35:49 GMT 51.466209 -0.487556 0 191 0
2019-11-30 06:35:46 GMT 51.466221 -0.487537 0 191 0
2019-11-30 06:35:35 GMT 51.466270 -0.487518 0 191 0
2019-11-30 06:35:20 GMT 51.466312 -0.487518 0 191 0
2019-11-30 06:35:10 GMT 51.466305 -0.487518 0 191 0
2019-11-30 06:35:06 GMT 51.466328 -0.487518 0 191 0
2019-11-30 06:34:58 GMT 51.466255 -0.487518 0 191 0
2019-11-30 06:34:54 GMT 51.466267 -0.487537 0 191 0
2019-11-30 06:34:46 GMT 51.466255 -0.487537 0 191 0
2019-11-30 06:34:36 GMT 51.466129 -0.487555 0 191 0
2019-11-30 06:34:31 GMT 51.466187 -0.487556 0 191 0
2019-11-30 06:34:24 GMT 51.466209 -0.487555 0 191 0
2019-11-30 06:34:16 GMT 51.466232 -0.487537 0 191 0
2019-11-30 06:34:05 GMT 51.466255 -0.487518 0 191 1
2019-11-30 06:33:55 GMT 51.466381 -0.487481 0 182 3
2019-11-30 06:33:45 GMT 51.466541 -0.487463 0 180 4
2019-11-30 06:33:35 GMT 51.466805 -0.487461 0 180 8
2019-11-30 06:33:24 GMT 51.467190 -0.487366 0 208 8
2019-11-30 06:33:18 GMT 51.467342 -0.487147 0 244 9
2019-11-30 06:33:15 GMT 51.467377 -0.486980 0 255 9
2019-11-30 06:33:05 GMT 51.467384 -0.486221 0 270 10
2019-11-30 06:32:54 GMT 51.467384 -0.485611 0 270 6
2019-11-30 06:32:43 GMT 51.467400 -0.485344 0 270 2
2019-11-30 06:32:32 GMT 51.467445 -0.485291 0 270 0
2019-11-30 06:32:23 GMT 51.467384 -0.485306 0 270 0
2019-11-30 06:32:13 GMT 51.467388 -0.485310 0 270 0
2019-11-30 06:31:53 GMT 51.467411 -0.485328 0 270 0
2019-11-30 06:31:38 GMT 51.467422 -0.485325 0 270 0
2019-11-30 06:31:18 GMT 51.467411 -0.485328 0 270 0
2019-11-30 06:31:08 GMT 51.467407 -0.485325 0 270 0
2019-11-30 06:30:38 GMT 51.467411 -0.485310 0 270 0
2019-11-30 06:30:08 GMT 51.467400 -0.485306 0 270 0
2019-11-30 06:29:38 GMT 51.467434 -0.485306 0 270 0
2019-11-30 06:29:28 GMT 51.467445 -0.485306 0 270 0
2019-11-30 06:29:08 GMT 51.467407 -0.485306 0 270 0
2019-11-30 06:28:58 GMT 51.467411 -0.485310 0 270 0
2019-11-30 06:28:48 GMT 51.467411 -0.485328 0 270 0
2019-11-30 06:28:28 GMT 51.467422 -0.485325 0 270 0
2019-11-30 06:28:18 GMT 51.467422 -0.485328 0 270 0
2019-11-30 06:28:08 GMT 51.467407 -0.485325 0 270 0
2019-11-30 06:27:48 GMT 51.467400 -0.485328 0 270 0
2019-11-30 06:27:37 GMT 51.467388 -0.485310 0 270 0
2019-11-30 06:27:29 GMT 51.467400 -0.485306 0 270 0
2019-11-30 06:27:19 GMT 51.467411 -0.485310 0 270 0
2019-11-30 06:27:09 GMT 51.467422 -0.485210 0 270 3
2019-11-30 06:27:06 GMT 51.467422 -0.485124 0 270 4
2019-11-30 06:27:03 GMT 51.467422 -0.485013 0 270 6
2019-11-30 06:26:58 GMT 51.467422 -0.484827 0 270 6
2019-11-30 06:26:46 GMT 51.467422 -0.484271 0 270 8
2019-11-30 06:26:40 GMT 51.467434 -0.483974 0 247 8
2019-11-30 06:26:33 GMT 51.467655 -0.483589 0 180 8
2019-11-30 06:26:28 GMT 51.467793 -0.483532 0 182 8
2019-11-30 06:26:21 GMT 51.467892 -0.483528 0 180 7
2019-11-30 06:26:18 GMT 51.467972 -0.483528 0 180 7
2019-11-30 06:26:12 GMT 51.468109 -0.483528 0 180 5
2019-11-30 06:26:00 GMT 51.468235 -0.483532 0 177 1
2019-11-30 06:25:55 GMT 51.468235 -0.483547 0 177 0
2019-11-30 06:25:45 GMT 51.468235 -0.483547 0 177 0
2019-11-30 06:25:27 GMT 51.468235 -0.483547 0 177 0
2019-11-30 06:25:17 GMT 51.468246 -0.483547 0 177 0
2019-11-30 06:25:10 GMT 51.468342 -0.483532 0 171 3
2019-11-30 06:25:07 GMT 51.468372 -0.483547 0 168 3
2019-11-30 06:25:00 GMT 51.468533 -0.483584 0 149 6
2019-11-30 06:24:50 GMT 51.468746 -0.483913 0 104 6
2019-11-30 06:24:42 GMT 51.468784 -0.484178 0 90 5
2019-11-30 06:24:39 GMT 51.468784 -0.484276 0 90 5
2019-11-30 06:24:36 GMT 51.468784 -0.484371 0 90 5
2019-11-30 06:24:29 GMT 51.468784 -0.484562 0 90 4
2019-11-30 06:24:19 GMT 51.468784 -0.484848 0 90 4
2019-11-30 06:24:09 GMT 51.468784 -0.485153 0 90 5
2019-11-30 06:23:56 GMT 51.468784 -0.485588 0 90 4
2019-11-30 06:23:42 GMT 51.468784 -0.485840 0 92 2
2019-11-30 06:23:33 GMT 51.468784 -0.485922 0 92 0
2019-11-30 06:23:22 GMT 51.468784 -0.485916 0 92 0
2019-11-30 06:23:07 GMT 51.468796 -0.485916 0 92 0
2019-11-30 06:22:42 GMT 51.468784 -0.485904 0 92 0
2019-11-30 06:22:27 GMT 51.468796 -0.485904 0 92 0
2019-11-30 06:22:17 GMT 51.468784 -0.485922 0 92 0
2019-11-30 06:22:07 GMT 51.468784 -0.485904 0 92 0
2019-11-30 06:21:57 GMT 51.468807 -0.485897 0 92 0
2019-11-30 06:21:47 GMT 51.468796 -0.485904 0 92 0
2019-11-30 06:21:37 GMT 51.468784 -0.485897 0 92 0
2019-11-30 06:21:27 GMT 51.468796 -0.485897 0 92 0
2019-11-30 06:21:22 GMT 51.468784 -0.485904 0 92 0
2019-11-30 06:21:12 GMT 51.468773 -0.485897 0 92 0
2019-11-30 06:21:07 GMT 51.468773 -0.485904 0 92 0
2019-11-30 06:21:03 GMT 51.468773 -0.485916 0 92 0
2019-11-30 06:20:56 GMT 51.468773 -0.485904 0 92 0
2019-11-30 06:20:49 GMT 51.468773 -0.485922 0 92 0
2019-11-30 06:20:46 GMT 51.468773 -0.485916 0 92 0
2019-11-30 06:20:41 GMT 51.468784 -0.485885 0 87 1
2019-11-30 06:20:33 GMT 51.468819 -0.485755 0 78 3
2019-11-30 06:20:13 GMT 51.468990 -0.485706 0 22 3
2019-11-30 06:20:10 GMT 51.469036 -0.485718 0 14 3
2019-11-30 06:20:06 GMT 51.469086 -0.485744 0 5 3
2019-11-30 06:20:01 GMT 51.469116 -0.485755 0 0 3
2019-11-30 06:19:53 GMT 51.469196 -0.485755 0 0 3
2019-11-30 06:19:50 GMT 51.469242 -0.485755 0 0 3
2019-11-30 06:19:45 GMT 51.469284 -0.485764 0 0 3
2019-11-30 06:18:38 GMT 51.469402 -0.485774 0 0 0
2019-11-30 06:18:33 GMT 51.469398 -0.485764 0 0 0

Making use of Plane Finder data

You are free to use the raw flight data, aircraft information and images provided in this report for your own purposes provided the data is correctly attributed to Plane Finder. We ask that you please credit Plane Finder and link to planefinder.net in close proximity to the content.

Optionally one of the following logos (no smaller then 150x24px) can be used and must link to planefinder.net

Embedding the Plane Finder map

You are welcome to embed the Plane Finder playback map on your website to offer visitors a more interactive experience. We suggest using the following HTML code:

<iframe src="//planefinder.net/data/report/BA1414-G-EUOE-7700-squawk-2019-11-30/map" width="800" height="600" seamless="seamless"></iframe>

Where our data comes from

Plane Finder has a global network of data feeds and antenna radars that receive data broadcast directly from aircraft. The primary technologies used are ADS-B and MLAT. We also show feeds from the FAA and a FLARM glider feed.

Click here to find out more about the Plane Finder network.

How we collect our data